Observation data for Goodnight on 05/24/2020      Previous  Date  Next       Current Mesonet Observations  Soil Data  Daily Summary Page  Observations in Plain Language
KGO1 240500Z 17014KT 19/11 A2983 RMK A01 T01910113  RH  060%=      5-min Rain = 0
KGO1 240501Z 17015KT 19/11 A2983 RMK A01 T01900113  RH  061%=      5-min Rain = 0
KGO1 240502Z 16015KT 19/11 A2983 RMK A01 T01900113  RH  061%=      5-min Rain = 0
KGO1 240503Z 17014KT 19/11 A2983 RMK A01 T01900113  RH  061%=      5-min Rain = 0
KGO1 240504Z 17014KT 19/11 A2983 RMK A01 T01890113  RH  061%=      5-min Rain = 0
KGO1 240505Z 17013KT 19/11 A2983 RMK A01 T01890113  RH  061%=      5-min Rain = 0
KGO1 240506Z 17015KT 19/11 A2983 RMK A01 T01890113  RH  062%=      5-min Rain = 0
KGO1 240507Z 17014KT 19/11 A2983 RMK A01 T01890114  RH  062%=      5-min Rain = 0
KGO1 240508Z 17015KT 19/11 A2983 RMK A01 T01880114  RH  062%=      5-min Rain = 0
KGO1 240509Z 17014KT 19/11 A2983 RMK A01 T01880114  RH  062%=      5-min Rain = 0
KGO1 240510Z 16016KT 19/11 A2983 RMK A01 T01880114  RH  062%=      5-min Rain = 0
KGO1 240511Z 16014KT 19/11 A2983 RMK A01 T01870114  RH  062%=      5-min Rain = 0
KGO1 240512Z 16015KT 19/12 A2983 RMK A01 T01870115  RH  063%=      5-min Rain = 0
KGO1 240513Z 16013KT 19/12 A2983 RMK A01 T01870115  RH  063%=      5-min Rain = 0
KGO1 240514Z 16013KT 19/12 A2983 RMK A01 T01870115  RH  063%=      5-min Rain = 0
KGO1 240515Z 16012KT 19/12 A2983 RMK A01 T01860115  RH  063%=      5-min Rain = 0
KGO1 240516Z 16013KT 19/12 A2983 RMK A01 T01850115  RH  064%=      5-min Rain = 0
KGO1 240517Z 15013KT 19/12 A2983 RMK A01 T01850116  RH  064%=      5-min Rain = 0
KGO1 240518Z 15013KT 19/12 A2983 RMK A01 T01850116  RH  064%=      5-min Rain = 0
KGO1 240519Z 17013KT 19/12 A2983 RMK A01 T01850116  RH  064%=      5-min Rain = 0
KGO1 240520Z 16011KT 19/12 A2983 RMK A01 T01850116  RH  064%=      5-min Rain = 0
KGO1 240521Z 16012KT 18/12 A2983 RMK A01 T01840116  RH  065%=      5-min Rain = 0
KGO1 240522Z 16013KT 18/12 A2983 RMK A01 T01840117  RH  065%=      5-min Rain = 0
KGO1 240523Z 17012KT 18/12 A2983 RMK A01 T01840116  RH  065%=      5-min Rain = 0
KGO1 240524Z 17011KT 18/12 A2983 RMK A01 T01840116  RH  065%=      5-min Rain = 0
KGO1 240525Z 16010KT 18/12 A2983 RMK A01 T01830116  RH  065%=      5-min Rain = 0
KGO1 240526Z 16011KT 18/12 A2983 RMK A01 T01830117  RH  065%=      5-min Rain = 0
KGO1 240527Z 16012KT 18/12 A2983 RMK A01 T01830117  RH  065%=      5-min Rain = 0
KGO1 240528Z 16011KT 18/12 A2983 RMK A01 T01830117  RH  065%=      5-min Rain = 0
KGO1 240529Z 16012KT 18/12 A2983 RMK A01 T01820117  RH  066%=      5-min Rain = 0
KGO1 240530Z 17012KT 18/12 A2983 RMK A01 T01820117  RH  066%=      5-min Rain = 0
KGO1 240531Z 17013KT 18/12 A2983 RMK A01 T01820117  RH  066%=      5-min Rain = 0
KGO1 240532Z 16012KT 18/12 A2983 RMK A01 T01820116  RH  065%=      5-min Rain = 0
KGO1 240533Z 15011KT 18/12 A2983 RMK A01 T01820116  RH  065%=      5-min Rain = 0
KGO1 240534Z 15010KT 18/12 A2983 RMK A01 T01830117  RH  065%=      5-min Rain = 0
KGO1 240535Z 16013KT 18/12 A2983 RMK A01 T01830117  RH  065%=      5-min Rain = 0
KGO1 240536Z 16012KT 18/12 A2983 RMK A01 T01830117  RH  065%=      5-min Rain = 0
KGO1 240537Z 16011KT 18/12 A2983 RMK A01 T01830117  RH  065%=      5-min Rain = 0
KGO1 240538Z 16010KT 18/12 A2983 RMK A01 T01820117  RH  066%=      5-min Rain = 0
KGO1 240539Z 16011KT 18/12 A2983 RMK A01 T01820117  RH  066%=      5-min Rain = 0
KGO1 240540Z 17011KT 18/12 A2983 RMK A01 T01820117  RH  066%=      5-min Rain = 0
KGO1 240541Z 17009KT 18/12 A2983 RMK A01 T01820117  RH  066%=      5-min Rain = 0
KGO1 240542Z 17009KT 18/12 A2983 RMK A01 T01810117  RH  066%=      5-min Rain = 0
KGO1 240543Z 17011KT 18/12 A2983 RMK A01 T01800117  RH  067%=      5-min Rain = 0
KGO1 240544Z 17011KT 18/12 A2983 RMK A01 T01800117  RH  067%=      5-min Rain = 0
KGO1 240545Z 17010KT 18/12 A2983 RMK A01 T01800117  RH  067%=      5-min Rain = 0
KGO1 240546Z 16010KT 18/12 A2983 RMK A01 T01800117  RH  067%=      5-min Rain = 0
KGO1 240547Z 16010KT 18/12 A2983 RMK A01 T01800117  RH  067%=      5-min Rain = 0
KGO1 240548Z 16010KT 18/12 A2984 RMK A01 T01800117  RH  067%=      5-min Rain = 0
KGO1 240549Z 16010KT 18/12 A2984 RMK A01 T01800118  RH  067%=      5-min Rain = 0
KGO1 240550Z 17009KT 18/12 A2984 RMK A01 T01800118  RH  067%=      5-min Rain = 0
KGO1 240551Z 17010KT 18/12 A2984 RMK A01 T01790118  RH  067%=      5-min Rain = 0
KGO1 240552Z 16009KT 18/12 A2983 RMK A01 T01790118  RH  067%=      5-min Rain = 0
KGO1 240553Z 16009KT 18/12 A2983 RMK A01 T01790118  RH  068%=      5-min Rain = 0
KGO1 240554Z 16009KT 18/12 A2983 RMK A01 T01790118  RH  068%=      5-min Rain = 0
KGO1 240555Z 15010KT 18/12 A2983 RMK A01 T01780118  RH  068%=      5-min Rain = 0
KGO1 240556Z 15010KT 18/12 A2983 RMK A01 T01780118  RH  068%=      5-min Rain = 0
KGO1 240557Z 15009KT 18/12 A2983 RMK A01 T01780118  RH  068%=      5-min Rain = 0
KGO1 240558Z 16009KT 18/12 A2983 RMK A01 T01780118  RH  068%=      5-min Rain = 0
KGO1 240559Z 17010KT 18/12 A2984 RMK A01 T01780118  RH  068%=      5-min Rain = 0
KGO1 240600Z 16009KT 18/12 A2984 RMK A01 T01780118  RH  068%=      5-min Rain = 0
KGO1 240601Z 16009KT 18/12 A2983 RMK A01 T01780118  RH  068%=      5-min Rain = 0
KGO1 240602Z 17009KT 18/12 A2984 RMK A01 T01770118  RH  068%=      5-min Rain = 0
KGO1 240603Z 16009KT 18/12 A2984 RMK A01 T01780118  RH  068%=      5-min Rain = 0
KGO1 240604Z 15008KT 18/12 A2983 RMK A01 T01780118  RH  068%=      5-min Rain = 0
KGO1 240605Z 15008KT 18/12 A2983 RMK A01 T01770118  RH  068%=      5-min Rain = 0
KGO1 240606Z 16009KT 18/12 A2983 RMK A01 T01770117  RH  068%=      5-min Rain = 0
KGO1 240607Z 16009KT 18/12 A2983 RMK A01 T01770117  RH  068%=      5-min Rain = 0
KGO1 240608Z 17009KT 18/12 A2983 RMK A01 T01770117  RH  068%=      5-min Rain = 0
KGO1 240609Z 17008KT 18/12 A2983 RMK A01 T01780117  RH  068%=      5-min Rain = 0
KGO1 240610Z 16008KT 18/12 A2983 RMK A01 T01780118  RH  068%=      5-min Rain = 0
KGO1 240611Z 15008KT 18/12 A2983 RMK A01 T01780118  RH  068%=      5-min Rain = 0
KGO1 240612Z 15009KT 18/12 A2983 RMK A01 T01780118  RH  068%=      5-min Rain = 0
KGO1 240613Z 15010KT 18/12 A2983 RMK A01 T01770117  RH  068%=      5-min Rain = 0
KGO1 240614Z 15009KT 18/12 A2983 RMK A01 T01770118  RH  068%=      5-min Rain = 0
KGO1 240615Z 15010KT 18/12 A2983 RMK A01 T01770117  RH  068%=      5-min Rain = 0
KGO1 240616Z 15010KT 18/12 A2984 RMK A01 T01770118  RH  068%=      5-min Rain = 0
KGO1 240617Z 15009KT 18/12 A2984 RMK A01 T01760118  RH  069%=      5-min Rain = 0
KGO1 240618Z 16010KT 18/12 A2984 RMK A01 T01770118  RH  069%=      5-min Rain = 0
KGO1 240619Z 15009KT 18/12 A2983 RMK A01 T01770118  RH  069%=      5-min Rain = 0
KGO1 240620Z 13010KT 18/12 A2983 RMK A01 T01770118  RH  069%=      5-min Rain = 0
KGO1 240621Z 13010KT 18/12 A2983 RMK A01 T01760119  RH  069%=      5-min Rain = 0
KGO1 240622Z 14010KT 18/12 A2983 RMK A01 T01750119  RH  070%=      5-min Rain = 0
KGO1 240623Z 15010KT 17/12 A2984 RMK A01 T01740119  RH  070%=      5-min Rain = 0
KGO1 240624Z 15008KT 17/12 A2984 RMK A01 T01740119  RH  070%=      5-min Rain = 0
KGO1 240625Z 15009KT 17/12 A2984 RMK A01 T01740119  RH  070%=      5-min Rain = 0
KGO1 240626Z 16009KT 17/12 A2984 RMK A01 T01730119  RH  071%=      5-min Rain = 0
KGO1 240627Z 15010KT 17/12 A2984 RMK A01 T01730120  RH  071%=      5-min Rain = 0
KGO1 240628Z 14009KT 17/12 A2984 RMK A01 T01730120  RH  071%=      5-min Rain = 0
KGO1 240629Z 14011KT 17/12 A2984 RMK A01 T01730119  RH  070%=      5-min Rain = 0
KGO1 240630Z 14012KT 17/12 A2984 RMK A01 T01730119  RH  070%=      5-min Rain = 0
KGO1 240631Z 15012KT 17/12 A2984 RMK A01 T01740119  RH  070%=      5-min Rain = 0
KGO1 240632Z 15009G14KT 17/12 A2984 RMK A01 T01740119  RH  070%=      5-min Rain = 0
KGO1 240633Z 15012KT 17/12 A2984 RMK A01 T01740118  RH  070%=      5-min Rain = 0
KGO1 240634Z 14011KT 17/12 A2984 RMK A01 T01740118  RH  070%=      5-min Rain = 0
KGO1 240635Z 15012KT 18/12 A2984 RMK A01 T01750118  RH  069%=      5-min Rain = 0
KGO1 240636Z 15013KT 18/12 A2984 RMK A01 T01750119  RH  069%=      5-min Rain = 0
KGO1 240637Z 14013KT 18/12 A2984 RMK A01 T01750119  RH  069%=      5-min Rain = 0
KGO1 240638Z 15012KT 18/12 A2984 RMK A01 T01750119  RH  069%=      5-min Rain = 0
KGO1 240639Z 16012KT 18/12 A2984 RMK A01 T01750119  RH  070%=      5-min Rain = 0
KGO1 240640Z 15013KT 18/12 A2984 RMK A01 T01750120  RH  070%=      5-min Rain = 0
KGO1 240641Z 15010KT 17/12 A2984 RMK A01 T01740120  RH  070%=      5-min Rain = 0
KGO1 240642Z 15012KT 17/12 A2984 RMK A01 T01740120  RH  070%=      5-min Rain = 0
KGO1 240643Z 15013KT 17/12 A2984 RMK A01 T01730120  RH  071%=      5-min Rain = 0
KGO1 240644Z 15012KT 17/12 A2984 RMK A01 T01730120  RH  071%=      5-min Rain = 0
KGO1 240645Z 15011KT 17/12 A2984 RMK A01 T01730120  RH  071%=      5-min Rain = 0
KGO1 240646Z 15011KT 17/12 A2984 RMK A01 T01730120  RH  071%=      5-min Rain = 0
KGO1 240647Z 15012KT 17/12 A2984 RMK A01 T01730120  RH  071%=      5-min Rain = 0
KGO1 240648Z 15011KT 17/12 A2984 RMK A01 T01730120  RH  071%=      5-min Rain = 0
KGO1 240649Z 15011KT 17/12 A2984 RMK A01 T01730120  RH  071%=      5-min Rain = 0
KGO1 240650Z 15012KT 17/12 A2985 RMK A01 T01730120  RH  071%=      5-min Rain = 0
KGO1 240651Z 15013KT 17/12 A2984 RMK A01 T01720120  RH  071%=      5-min Rain = 0
KGO1 240652Z 15012KT 17/12 A2984 RMK A01 T01730120  RH  071%=      5-min Rain = 0
KGO1 240653Z 15012KT 17/12 A2985 RMK A01 T01730120  RH  071%=      5-min Rain = 0
KGO1 240654Z 15014KT 17/12 A2985 RMK A01 T01730120  RH  071%=      5-min Rain = 0
KGO1 240655Z 15012KT 17/12 A2985 RMK A01 T01730120  RH  071%=      5-min Rain = 0
KGO1 240656Z 15012KT 17/12 A2984 RMK A01 T01730121  RH  071%=      5-min Rain = 0
KGO1 240657Z 15012KT 17/12 A2985 RMK A01 T01730120  RH  071%=      5-min Rain = 0
KGO1 240658Z 15013KT 17/12 A2985 RMK A01 T01720120  RH  072%=      5-min Rain = 0
KGO1 240659Z 14012KT 17/12 A2985 RMK A01 T01720121  RH  072%=      5-min Rain = 0
KGO1 240700Z 14012KT 17/12 A2984 RMK A01 T01710121  RH  072%=      5-min Rain = 0
KGO1 240701Z 14012KT 17/12 A2985 RMK A01 T01710121  RH  072%=      5-min Rain = 0
KGO1 240702Z 15013KT 17/12 A2985 RMK A01 T01710121  RH  072%=      5-min Rain = 0
KGO1 240703Z 15012KT 17/12 A2985 RMK A01 T01710121  RH  072%=      5-min Rain = 0
KGO1 240704Z 15012KT 17/12 A2985 RMK A01 T01710121  RH  072%=      5-min Rain = 0
KGO1 240705Z 15012KT 17/12 A2985 RMK A01 T01710121  RH  072%=      5-min Rain = 0
KGO1 240706Z 15013KT 17/12 A2985 RMK A01 T01710121  RH  072%=      5-min Rain = 0
KGO1 240707Z 15012KT 17/12 A2985 RMK A01 T01710120  RH  072%=      5-min Rain = 0
KGO1 240708Z 15013KT 17/12 A2985 RMK A01 T01710121  RH  072%=      5-min Rain = 0
KGO1 240709Z 15012KT 17/12 A2985 RMK A01 T01710121  RH  072%=      5-min Rain = 0
KGO1 240710Z 15012KT 17/12 A2985 RMK A01 T01710121  RH  072%=      5-min Rain = 0
KGO1 240711Z 15012KT 17/12 A2985 RMK A01 T01710121  RH  072%=      5-min Rain = 0
KGO1 240712Z 15013KT 17/12 A2985 RMK A01 T01700121  RH  073%=      5-min Rain = 0
KGO1 240713Z 15013KT 17/12 A2985 RMK A01 T01700121  RH  073%=      5-min Rain = 0
KGO1 240714Z 15011KT 17/12 A2985 RMK A01 T01710121  RH  073%=      5-min Rain = 0
KGO1 240715Z 15011KT 17/12 A2985 RMK A01 T01710121  RH  073%=      5-min Rain = 0
KGO1 240716Z 16013KT 17/12 A2985 RMK A01 T01700121  RH  073%=      5-min Rain = 0
KGO1 240717Z 15011KT 17/12 A2985 RMK A01 T01700121  RH  073%=      5-min Rain = 0
KGO1 240718Z 16012KT 17/12 A2985 RMK A01 T01700121  RH  073%=      5-min Rain = 0
KGO1 240719Z 15011KT 17/12 A2985 RMK A01 T01700122  RH  073%=      5-min Rain = 0
KGO1 240720Z 15010KT 17/12 A2985 RMK A01 T01700122  RH  073%=      5-min Rain = 0
KGO1 240721Z 16010KT 17/12 A2985 RMK A01 T01690122  RH  073%=      5-min Rain = 0
KGO1 240722Z 17012KT 17/12 A2986 RMK A01 T01690121  RH  073%=      5-min Rain = 0
KGO1 240723Z 16011KT 17/12 A2986 RMK A01 T01690122  RH  073%=      5-min Rain = 0
KGO1 240724Z 15010KT 17/12 A2985 RMK A01 T01690121  RH  073%=      5-min Rain = 0
KGO1 240725Z 15010KT 17/12 A2985 RMK A01 T01690121  RH  074%=      5-min Rain = 0
KGO1 240726Z 16011KT 17/12 A2986 RMK A01 T01690122  RH  074%=      5-min Rain = 0
KGO1 240727Z 17010KT 17/12 A2986 RMK A01 T01680122  RH  074%=      5-min Rain = 0
KGO1 240728Z 17010KT 17/12 A2986 RMK A01 T01680122  RH  074%=      5-min Rain = 0
KGO1 240729Z 15009KT 17/12 A2986 RMK A01 T01680121  RH  074%=      5-min Rain = 0
KGO1 240730Z 15009KT 17/12 A2986 RMK A01 T01680121  RH  074%=      5-min Rain = 0
KGO1 240731Z 16010KT 17/12 A2986 RMK A01 T01680121  RH  074%=      5-min Rain = 0
KGO1 240732Z 17010KT 17/12 A2986 RMK A01 T01680121  RH  074%=      5-min Rain = 0
KGO1 240733Z 17011KT 17/12 A2986 RMK A01 T01680121  RH  074%=      5-min Rain = 0
KGO1 240734Z 14011KT 17/12 A2985 RMK A01 T01680121  RH  074%=      5-min Rain = 0
KGO1 240735Z 13010KT 17/12 A2985 RMK A01 T01680120  RH  073%=      5-min Rain = 0
KGO1 240736Z 15011KT 17/12 A2986 RMK A01 T01680120  RH  074%=      5-min Rain = 0
KGO1 240737Z 17011KT 17/12 A2986 RMK A01 T01680121  RH  074%=      5-min Rain = 0
KGO1 240738Z 17011KT 17/12 A2986 RMK A01 T01680119  RH  073%=      5-min Rain = 0
KGO1 240739Z 16011KT 17/12 A2986 RMK A01 T01680118  RH  072%=      5-min Rain = 0
KGO1 240740Z 15012KT 17/12 A2986 RMK A01 T01690118  RH  072%=      5-min Rain = 0
KGO1 240741Z 16013KT 17/12 A2986 RMK A01 T01700118  RH  071%=      5-min Rain = 0
KGO1 240742Z 16013KT 17/12 A2986 RMK A01 T01700118  RH  071%=      5-min Rain = 0
KGO1 240743Z 16011KT 17/12 A2986 RMK A01 T01700117  RH  071%=      5-min Rain = 0
KGO1 240744Z 16012KT 17/12 A2986 RMK A01 T01710117  RH  071%=      5-min Rain = 0
KGO1 240745Z 15012KT 17/12 A2986 RMK A01 T01710118  RH  071%=      5-min Rain = 0
KGO1 240746Z 17013KT 17/12 A2986 RMK A01 T01710118  RH  071%=      5-min Rain = 0
KGO1 240747Z 17013KT 17/12 A2987 RMK A01 T01710118  RH  071%=      5-min Rain = 0
KGO1 240748Z 17011KT 17/12 A2986 RMK A01 T01710118  RH  071%=      5-min Rain = 0
KGO1 240749Z 16012KT 17/12 A2986 RMK A01 T01700118  RH  071%=      5-min Rain = 0
KGO1 240750Z 15013KT 17/12 A2986 RMK A01 T01700117  RH  071%=      5-min Rain = 0
KGO1 240751Z 16014KT 17/12 A2986 RMK A01 T01700117  RH  071%=      5-min Rain = 0
KGO1 240752Z 16015KT 17/12 A2986 RMK A01 T01700118  RH  071%=      5-min Rain = 0
KGO1 240753Z 16013KT 17/12 A2986 RMK A01 T01700117  RH  071%=      5-min Rain = 0
KGO1 240754Z 16014KT 17/12 A2986 RMK A01 T01710117  RH  071%=      5-min Rain = 0
KGO1 240755Z 17014KT 17/12 A2986 RMK A01 T01710117  RH  071%=      5-min Rain = 0
KGO1 240756Z 17014KT 17/12 A2986 RMK A01 T01710117  RH  071%=      5-min Rain = 0
KGO1 240757Z 16014KT 17/12 A2986 RMK A01 T01710117  RH  071%=      5-min Rain = 0
KGO1 240758Z 15013KT 17/12 A2986 RMK A01 T01710118  RH  071%=      5-min Rain = 0
KGO1 240759Z 16014KT 17/12 A2986 RMK A01 T01700118  RH  071%=      5-min Rain = 0
KGO1 240800Z 16014KT 17/12 A2986 RMK A01 T01700118  RH  071%=      5-min Rain = 0
KGO1 240801Z 17013KT 17/12 A2986 RMK A01 T01700118  RH  072%=      5-min Rain = 0
KGO1 240802Z 17013KT 17/12 A2986 RMK A01 T01690118  RH  072%=      5-min Rain = 0
KGO1 240803Z 17012KT 17/12 A2986 RMK A01 T01690119  RH  072%=      5-min Rain = 0
KGO1 240804Z 17012KT 17/12 A2986 RMK A01 T01680118  RH  073%=      5-min Rain = 0
KGO1 240805Z 16012KT 17/12 A2986 RMK A01 T01670118  RH  073%=      5-min Rain = 0
KGO1 240806Z 15011KT 17/12 A2986 RMK A01 T01670118  RH  073%=      5-min Rain = 0
KGO1 240807Z 15012KT 17/12 A2986 RMK A01 T01670117  RH  072%=      5-min Rain = 0
KGO1 240808Z 15013KT 17/12 A2986 RMK A01 T01670115  RH  071%=      5-min Rain = 0
KGO1 240809Z 15013KT 17/12 A2986 RMK A01 T01690115  RH  071%=      5-min Rain = 0
KGO1 240810Z 16013KT 17/12 A2986 RMK A01 T01690115  RH  070%=      5-min Rain = 0
KGO1 240811Z 16013KT 17/12 A2986 RMK A01 T01700116  RH  070%=      5-min Rain = 0
KGO1 240812Z 16012KT 17/12 A2986 RMK A01 T01700116  RH  071%=      5-min Rain = 0
KGO1 240813Z 17011KT 17/12 A2986 RMK A01 T01690117  RH  071%=      5-min Rain = 0
KGO1 240814Z 17011KT 17/12 A2986 RMK A01 T01690117  RH  071%=      5-min Rain = 0
KGO1 240815Z 16010KT 17/12 A2986 RMK A01 T01680116  RH  072%=      5-min Rain = 0
KGO1 240816Z 16011KT 17/12 A2986 RMK A01 T01670116  RH  072%=      5-min Rain = 0
KGO1 240817Z 16013KT 17/12 A2985 RMK A01 T01680115  RH  071%=      5-min Rain = 0
KGO1 240818Z 16013KT 17/11 A2985 RMK A01 T01690113  RH  070%=      5-min Rain = 0
KGO1 240819Z 15013KT 17/11 A2985 RMK A01 T01700113  RH  069%=      5-min Rain = 0
KGO1 240820Z 16011KT 17/11 A2985 RMK A01 T01710113  RH  069%=      5-min Rain = 0
KGO1 240821Z 16012KT 17/11 A2985 RMK A01 T01710114  RH  069%=      5-min Rain = 0
KGO1 240822Z 16012KT 17/11 A2985 RMK A01 T01700114  RH  070%=      5-min Rain = 0
KGO1 240823Z 16012KT 17/12 A2985 RMK A01 T01700115  RH  070%=      5-min Rain = 0
KGO1 240824Z 16013KT 17/12 A2985 RMK A01 T01690116  RH  071%=      5-min Rain = 0
KGO1 240825Z 16012KT 17/12 A2985 RMK A01 T01690116  RH  071%=      5-min Rain = 0
KGO1 240826Z 16012KT 17/12 A2985 RMK A01 T01680116  RH  071%=      5-min Rain = 0
KGO1 240827Z 16011KT 17/12 A2985 RMK A01 T01670116  RH  072%=      5-min Rain = 0
KGO1 240828Z 16012KT 17/12 A2985 RMK A01 T01670116  RH  072%=      5-min Rain = 0
KGO1 240829Z 16011KT 17/12 A2985 RMK A01 T01670116  RH  072%=      5-min Rain = 0
KGO1 240830Z 17012KT 17/12 A2985 RMK A01 T01670116  RH  072%=      5-min Rain = 0
KGO1 240831Z 17012KT 17/12 A2985 RMK A01 T01670116  RH  072%=      5-min Rain = 0
KGO1 240832Z 17012KT 17/12 A2986 RMK A01 T01670115  RH  071%=      5-min Rain = 0
KGO1 240833Z 17012KT 17/12 A2986 RMK A01 T01670115  RH  071%=      5-min Rain = 0
KGO1 240834Z 17011KT 17/12 A2985 RMK A01 T01670116  RH  072%=      5-min Rain = 0
KGO1 240835Z 16011KT 17/12 A2985 RMK A01 T01660116  RH  072%=      5-min Rain = 0
KGO1 240836Z 16011KT 17/12 A2985 RMK A01 T01660116  RH  072%=      5-min Rain = 0
KGO1 240837Z 16011KT 17/12 A2985 RMK A01 T01650115  RH  072%=      5-min Rain = 0
KGO1 240838Z 16012KT 17/12 A2985 RMK A01 T01660116  RH  072%=      5-min Rain = 0
KGO1 240839Z 17011KT 17/12 A2985 RMK A01 T01650115  RH  072%=      5-min Rain = 0
KGO1 240840Z 17011KT 17/12 A2985 RMK A01 T01650115  RH  072%=      5-min Rain = 0
KGO1 240841Z 17011KT 17/12 A2985 RMK A01 T01650115  RH  072%=      5-min Rain = 0
KGO1 240842Z 17011KT 17/12 A2985 RMK A01 T01650115  RH  072%=      5-min Rain = 0
KGO1 240843Z 17011KT 17/11 A2985 RMK A01 T01650114  RH  072%=      5-min Rain = 0
KGO1 240844Z 17011KT 17/11 A2985 RMK A01 T01650114  RH  072%=      5-min Rain = 0
KGO1 240845Z 17011KT 17/11 A2986 RMK A01 T01650114  RH  071%=      5-min Rain = 0
KGO1 240846Z 16011KT 17/11 A2985 RMK A01 T01660113  RH  071%=      5-min Rain = 0
KGO1 240847Z 16011KT 17/11 A2985 RMK A01 T01660113  RH  071%=      5-min Rain = 0
KGO1 240848Z 16011KT 17/11 A2985 RMK A01 T01660112  RH  070%=      5-min Rain = 0
KGO1 240849Z 16010KT 17/11 A2985 RMK A01 T01670112  RH  070%=      5-min Rain = 0
KGO1 240850Z 17012KT 17/11 A2986 RMK A01 T01670112  RH  070%=      5-min Rain = 0
KGO1 240851Z 17011KT 17/11 A2986 RMK A01 T01670112  RH  070%=      5-min Rain = 0
KGO1 240852Z 17012KT 17/11 A2986 RMK A01 T01670111  RH  069%=      5-min Rain = 0
KGO1 240853Z 17011KT 17/11 A2986 RMK A01 T01690111  RH  069%=      5-min Rain = 0
KGO1 240854Z 16011KT 17/11 A2986 RMK A01 T01690111  RH  069%=      5-min Rain = 0
KGO1 240855Z 17012KT 17/11 A2986 RMK A01 T01690111  RH  069%=      5-min Rain = 0
KGO1 240856Z 16012KT 17/11 A2986 RMK A01 T01690111  RH  069%=      5-min Rain = 0
KGO1 240857Z 16011KT 17/11 A2986 RMK A01 T01690111  RH  069%=      5-min Rain = 0
KGO1 240858Z 16009KT 17/11 A2986 RMK A01 T01690111  RH  069%=      5-min Rain = 0
KGO1 240859Z 17011KT 17/11 A2986 RMK A01 T01680111  RH  069%=      5-min Rain = 0
KGO1 240900Z 16011KT 17/11 A2986 RMK A01 T01680111  RH  069%=      5-min Rain = 0
KGO1 240901Z 16011KT 17/11 A2986 RMK A01 T01680111  RH  069%=      5-min Rain = 0
KGO1 240902Z 16011KT 17/11 A2986 RMK A01 T01670111  RH  069%=      5-min Rain = 0
KGO1 240903Z 16010KT 17/11 A2986 RMK A01 T01670111  RH  069%=      5-min Rain = 0
KGO1 240904Z 16010KT 17/11 A2986 RMK A01 T01670111  RH  069%=      5-min Rain = 0
KGO1 240905Z 16009KT 17/11 A2986 RMK A01 T01670112  RH  070%=      5-min Rain = 0
KGO1 240906Z 16011KT 17/11 A2986 RMK A01 T01670111  RH  070%=      5-min Rain = 0
KGO1 240907Z 15011KT 17/11 A2986 RMK A01 T01660111  RH  070%=      5-min Rain = 0
KGO1 240908Z 15011KT 17/11 A2986 RMK A01 T01660111  RH  070%=      5-min Rain = 0
KGO1 240909Z 15011KT 17/11 A2986 RMK A01 T01660111  RH  070%=      5-min Rain = 0
KGO1 240910Z 15010KT 17/11 A2986 RMK A01 T01660111  RH  070%=      5-min Rain = 0
KGO1 240911Z 15010KT 17/11 A2986 RMK A01 T01660112  RH  070%=      5-min Rain = 0
KGO1 240912Z 15011KT 17/11 A2986 RMK A01 T01660112  RH  070%=      5-min Rain = 0
KGO1 240913Z 15010KT 17/11 A2986 RMK A01 T01660112  RH  071%=      5-min Rain = 0
KGO1 240914Z 15010KT 17/11 A2986 RMK A01 T01650112  RH  071%=      5-min Rain = 0
KGO1 240915Z 15011KT 17/11 A2986 RMK A01 T01650112  RH  071%=      5-min Rain = 0
KGO1 240916Z 15010KT 16/11 A2986 RMK A01 T01640112  RH  071%=      5-min Rain = 0
KGO1 240917Z 15009KT 16/11 A2986 RMK A01 T01640112  RH  071%=      5-min Rain = 0
KGO1 240918Z 15009KT 16/11 A2986 RMK A01 T01640112  RH  072%=      5-min Rain = 0
KGO1 240919Z 15009KT 16/11 A2986 RMK A01 T01630113  RH  072%=      5-min Rain = 0
KGO1 240920Z 15009KT 16/11 A2986 RMK A01 T01620113  RH  072%=      5-min Rain = 0
KGO1 240921Z 16009KT 16/11 A2986 RMK A01 T01620113  RH  073%=      5-min Rain = 0
KGO1 240922Z 15008KT 16/11 A2986 RMK A01 T01620113  RH  073%=      5-min Rain = 0
KGO1 240923Z 15009KT 16/11 A2986 RMK A01 T01610113  RH  073%=      5-min Rain = 0
KGO1 240924Z 15009KT 16/11 A2986 RMK A01 T01610113  RH  073%=      5-min Rain = 0
KGO1 240925Z 15008KT 16/11 A2986 RMK A01 T01610113  RH  073%=      5-min Rain = 0
KGO1 240926Z 15009KT 16/11 A2986 RMK A01 T01600113  RH  073%=      5-min Rain = 0
KGO1 240927Z 15010KT 16/11 A2986 RMK A01 T01600113  RH  073%=      5-min Rain = 0
KGO1 240928Z 15009KT 16/11 A2986 RMK A01 T01600113  RH  073%=      5-min Rain = 0
KGO1 240929Z 15009KT 16/11 A2986 RMK A01 T01600113  RH  073%=      5-min Rain = 0
KGO1 240930Z 16009KT 16/11 A2986 RMK A01 T01610113  RH  073%=      5-min Rain = 0
KGO1 240931Z 16009KT 16/11 A2986 RMK A01 T01600113  RH  073%=      5-min Rain = 0
KGO1 240932Z 16009KT 16/11 A2986 RMK A01 T01600113  RH  074%=      5-min Rain = 0
KGO1 240933Z 15008KT 16/11 A2986 RMK A01 T01600113  RH  074%=      5-min Rain = 0
KGO1 240934Z 16008KT 16/11 A2986 RMK A01 T01600113  RH  074%=      5-min Rain = 0
KGO1 240935Z 15008KT 16/11 A2986 RMK A01 T01610113  RH  074%=      5-min Rain = 0
KGO1 240936Z 16008KT 16/11 A2986 RMK A01 T01600113  RH  074%=      5-min Rain = 0
KGO1 240937Z 16009KT 16/11 A2986 RMK A01 T01600113  RH  074%=      5-min Rain = 0
KGO1 240938Z 16008KT 16/11 A2986 RMK A01 T01600114  RH  074%=      5-min Rain = 0
KGO1 240939Z 16008KT 16/11 A2986 RMK A01 T01590113  RH  074%=      5-min Rain = 0
KGO1 240940Z 16008KT 16/11 A2986 RMK A01 T01590113  RH  074%=      5-min Rain = 0
KGO1 240941Z 16008KT 16/11 A2986 RMK A01 T01590113  RH  074%=      5-min Rain = 0
KGO1 240942Z 16008KT 16/11 A2986 RMK A01 T01580114  RH  075%=      5-min Rain = 0
KGO1 240943Z 16008KT 16/11 A2986 RMK A01 T01580114  RH  075%=      5-min Rain = 0
KGO1 240944Z 16008KT 16/11 A2986 RMK A01 T01580114  RH  075%=      5-min Rain = 0
KGO1 240945Z 16008KT 16/11 A2986 RMK A01 T01580114  RH  075%=      5-min Rain = 0
KGO1 240946Z 16007KT 16/11 A2986 RMK A01 T01580114  RH  075%=      5-min Rain = 0
KGO1 240947Z 16007KT 16/11 A2986 RMK A01 T01580114  RH  075%=      5-min Rain = 0
KGO1 240948Z 16007KT 16/11 A2986 RMK A01 T01570114  RH  076%=      5-min Rain = 0
KGO1 240949Z 16007KT 16/11 A2986 RMK A01 T01560114  RH  076%=      5-min Rain = 0
KGO1 240950Z 16008KT 16/11 A2986 RMK A01 T01560114  RH  076%=      5-min Rain = 0
KGO1 240951Z 16008KT 16/11 A2986 RMK A01 T01560114  RH  076%=      5-min Rain = 0
KGO1 240952Z 16008KT 16/11 A2986 RMK A01 T01560114  RH  076%=      5-min Rain = 0
KGO1 240953Z 16008KT 16/11 A2986 RMK A01 T01560114  RH  076%=      5-min Rain = 0
KGO1 240954Z 16008KT 16/11 A2986 RMK A01 T01550114  RH  076%=      5-min Rain = 0
KGO1 240955Z 16009KT 16/11 A2986 RMK A01 T01560114  RH  076%=      5-min Rain = 0
KGO1 240956Z 16009KT 16/11 A2986 RMK A01 T01560114  RH  076%=      5-min Rain = 0
KGO1 240957Z 16009KT 16/11 A2986 RMK A01 T01560114  RH  076%=      5-min Rain = 0
KGO1 240958Z 16008KT 16/11 A2986 RMK A01 T01560113  RH  076%=      5-min Rain = 0
KGO1 240959Z 16009KT 16/11 A2986 RMK A01 T01560113  RH  076%=      5-min Rain = 0
KGO1 241000Z 16009KT 16/11 A2986 RMK A01 T01560113  RH  075%=      5-min Rain = 0
KGO1 241001Z 17009KT 16/11 A2986 RMK A01 T01560113  RH  075%=      5-min Rain = 0
KGO1 241002Z 17010KT 16/11 A2986 RMK A01 T01570113  RH  075%=      5-min Rain = 0
KGO1 241003Z 16009KT 16/11 A2986 RMK A01 T01570113  RH  075%=      5-min Rain = 0
KGO1 241004Z 16009KT 16/11 A2986 RMK A01 T01570112  RH  074%=      5-min Rain = 0
KGO1 241005Z 16007KT 16/11 A2985 RMK A01 T01580112  RH  074%=      5-min Rain = 0
KGO1 241006Z 16008KT 16/11 A2985 RMK A01 T01580112  RH  074%=      5-min Rain = 0
KGO1 241007Z 16009KT 16/11 A2986 RMK A01 T01580112  RH  074%=      5-min Rain = 0
KGO1 241008Z 16009KT 16/11 A2986 RMK A01 T01580112  RH  074%=      5-min Rain = 0
KGO1 241009Z 16009KT 16/11 A2986 RMK A01 T01580111  RH  074%=      5-min Rain = 0
KGO1 241010Z 16009KT 16/11 A2986 RMK A01 T01580111  RH  074%=      5-min Rain = 0
KGO1 241011Z 17009KT 16/11 A2985 RMK A01 T01580111  RH  074%=      5-min Rain = 0
KGO1 241012Z 16009KT 16/11 A2985 RMK A01 T01580111  RH  074%=      5-min Rain = 0
KGO1 241013Z 17009KT 16/11 A2985 RMK A01 T01580111  RH  074%=      5-min Rain = 0
KGO1 241014Z 16010KT 16/11 A2985 RMK A01 T01580111  RH  074%=      5-min Rain = 0
KGO1 241015Z 16010KT 16/11 A2985 RMK A01 T01580111  RH  074%=      5-min Rain = 0
KGO1 241016Z 16010KT 16/11 A2985 RMK A01 T01580112  RH  074%=      5-min Rain = 0
KGO1 241017Z 16011KT 16/11 A2985 RMK A01 T01580112  RH  074%=      5-min Rain = 0
KGO1 241018Z 16010KT 16/11 A2985 RMK A01 T01580111  RH  074%=      5-min Rain = 0
KGO1 241019Z 17010KT 16/11 A2985 RMK A01 T01580111  RH  074%=      5-min Rain = 0
KGO1 241020Z 17010KT 16/11 A2985 RMK A01 T01580111  RH  073%=      5-min Rain = 0
KGO1 241021Z 17009KT 16/11 A2985 RMK A01 T01590111  RH  073%=      5-min Rain = 0
KGO1 241022Z 17009KT 16/11 A2985 RMK A01 T01580111  RH  073%=      5-min Rain = 0
KGO1 241023Z 17009KT 16/11 A2985 RMK A01 T01580111  RH  074%=      5-min Rain = 0
KGO1 241024Z 18008KT 16/11 A2985 RMK A01 T01580112  RH  074%=      5-min Rain = 0
KGO1 241025Z 17008KT 16/11 A2985 RMK A01 T01570112  RH  075%=      5-min Rain = 0
KGO1 241026Z 16009KT 16/11 A2985 RMK A01 T01550111  RH  075%=      5-min Rain = 0
KGO1 241027Z 16009KT 16/11 A2985 RMK A01 T01550112  RH  075%=      5-min Rain = 0
KGO1 241028Z 15009KT 16/11 A2985 RMK A01 T01550111  RH  075%=      5-min Rain = 0
KGO1 241029Z 15009KT 16/11 A2985 RMK A01 T01550111  RH  075%=      5-min Rain = 0
KGO1 241030Z 16008KT 15/11 A2985 RMK A01 T01540111  RH  075%=      5-min Rain = 0
KGO1 241031Z 16009KT 15/11 A2985 RMK A01 T01540110  RH  075%=      5-min Rain = 0
KGO1 241032Z 16008KT 16/11 A2985 RMK A01 T01550110  RH  075%=      5-min Rain = 0
KGO1 241033Z 15009KT 16/11 A2985 RMK A01 T01550111  RH  075%=      5-min Rain = 0
KGO1 241034Z 16010KT 16/11 A2985 RMK A01 T01550110  RH  075%=      5-min Rain = 0
KGO1 241035Z 16009KT 16/11 A2985 RMK A01 T01550110  RH  075%=      5-min Rain = 0
KGO1 241036Z 16009KT 16/11 A2985 RMK A01 T01550110  RH  074%=      5-min Rain = 0
KGO1 241037Z 16008KT 16/11 A2985 RMK A01 T01550110  RH  074%=      5-min Rain = 0
KGO1 241038Z 16008KT 16/11 A2985 RMK A01 T01550110  RH  074%=      5-min Rain = 0
KGO1 241039Z 16007KT 16/11 A2985 RMK A01 T01550110  RH  074%=      5-min Rain = 0
KGO1 241040Z 16007KT 16/11 A2985 RMK A01 T01550109  RH  074%=      5-min Rain = 0
KGO1 241041Z 15008KT 16/11 A2985 RMK A01 T01550109  RH  074%=      5-min Rain = 0
KGO1 241042Z 15008KT 16/11 A2985 RMK A01 T01550109  RH  074%=      5-min Rain = 0
KGO1 241043Z 15009KT 15/11 A2985 RMK A01 T01540108  RH  074%=      5-min Rain = 0
KGO1 241044Z 15009KT 16/11 A2985 RMK A01 T01550109  RH  074%=      5-min Rain = 0
KGO1 241045Z 15008KT 16/11 A2985 RMK A01 T01550109  RH  074%=      5-min Rain = 0
KGO1 241046Z 16008KT 16/11 A2985 RMK A01 T01550109  RH  074%=      5-min Rain = 0
KGO1 241047Z 16008KT 16/11 A2985 RMK A01 T01550109  RH  074%=      5-min Rain = 0
KGO1 241048Z 17008KT 16/11 A2985 RMK A01 T01560109  RH  073%=      5-min Rain = 0
KGO1 241049Z 16008KT 16/11 A2985 RMK A01 T01570109  RH  073%=      5-min Rain = 0
KGO1 241050Z 16008KT 16/11 A2985 RMK A01 T01570109  RH  073%=      5-min Rain = 0
KGO1 241051Z 16008KT 16/11 A2985 RMK A01 T01570108  RH  073%=      5-min Rain = 0
KGO1 241052Z 16007KT 16/11 A2985 RMK A01 T01560108  RH  073%=      5-min Rain = 0
KGO1 241053Z 16008KT 16/11 A2985 RMK A01 T01560108  RH  073%=      5-min Rain = 0
KGO1 241054Z 16010KT 16/11 A2985 RMK A01 T01550109  RH  074%=      5-min Rain = 0
KGO1 241055Z 16009KT 16/11 A2985 RMK A01 T01550110  RH  074%=      5-min Rain = 0
KGO1 241056Z 16008KT 16/11 A2985 RMK A01 T01560111  RH  075%=      5-min Rain = 0
KGO1 241057Z 15008KT 16/11 A2985 RMK A01 T01550111  RH  075%=      5-min Rain = 0
KGO1 241058Z 15008KT 16/11 A2985 RMK A01 T01550111  RH  075%=      5-min Rain = 0
KGO1 241059Z 15008KT 16/11 A2985 RMK A01 T01550111  RH  075%=      5-min Rain = 0
KGO1 241100Z 16007KT 15/11 A2985 RMK A01 T01540111  RH  075%=      5-min Rain = 0
KGO1 241101Z 17007KT 15/11 A2985 RMK A01 T01540112  RH  076%=      5-min Rain = 0
KGO1 241102Z 17006KT 15/11 A2985 RMK A01 T01520112  RH  077%=      5-min Rain = 0
KGO1 241103Z 17006KT 15/11 A2985 RMK A01 T01510112  RH  077%=      5-min Rain = 0
KGO1 241104Z 17006KT 15/11 A2985 RMK A01 T01500112  RH  078%=      5-min Rain = 0
KGO1 241105Z 17006KT 15/11 A2985 RMK A01 T01490112  RH  078%=      5-min Rain = 0
KGO1 241106Z 17006KT 15/11 A2985 RMK A01 T01490112  RH  079%=      5-min Rain = 0
KGO1 241107Z 16006KT 15/11 A2985 RMK A01 T01480112  RH  079%=      5-min Rain = 0
KGO1 241108Z 16006KT 15/11 A2985 RMK A01 T01480111  RH  079%=      5-min Rain = 0
KGO1 241109Z 16006KT 15/11 A2985 RMK A01 T01480111  RH  079%=      5-min Rain = 0
KGO1 241110Z 16007KT 15/11 A2985 RMK A01 T01470111  RH  079%=      5-min Rain = 0
KGO1 241111Z 17006KT 15/11 A2985 RMK A01 T01470111  RH  079%=      5-min Rain = 0
KGO1 241112Z 18005KT 15/11 A2985 RMK A01 T01470111  RH  079%=      5-min Rain = 0
KGO1 241113Z 20006KT 15/11 A2985 RMK A01 T01470110  RH  079%=      5-min Rain = 0
KGO1 241114Z 21008KT 15/11 A2985 RMK A01 T01460110  RH  079%=      5-min Rain = 0
KGO1 241115Z 20007KT 15/11 A2985 RMK A01 T01450110  RH  079%=      5-min Rain = 0
KGO1 241116Z 19007KT 15/11 A2985 RMK A01 T01450110  RH  080%=      5-min Rain = 0
KGO1 241117Z 18007KT 15/11 A2985 RMK A01 T01460110  RH  079%=      5-min Rain = 0
KGO1 241118Z 17007KT 15/11 A2985 RMK A01 T01460110  RH  079%=      5-min Rain = 0
KGO1 241119Z 17008KT 15/11 A2985 RMK A01 T01470110  RH  079%=      5-min Rain = 0
KGO1 241120Z 17008KT 15/11 A2985 RMK A01 T01470110  RH  078%=      5-min Rain = 0
KGO1 241121Z 17008KT 15/11 A2985 RMK A01 T01470110  RH  078%=      5-min Rain = 0
KGO1 241122Z 19008KT 15/11 A2985 RMK A01 T01480110  RH  078%=      5-min Rain = 0
KGO1 241123Z 19008KT 15/11 A2985 RMK A01 T01480110  RH  078%=      5-min Rain = 0
KGO1 241124Z 19008KT 15/11 A2985 RMK A01 T01480110  RH  078%=      5-min Rain = 0
KGO1 241125Z 18008KT 15/11 A2985 RMK A01 T01480110  RH  078%=      5-min Rain = 0
KGO1 241126Z 17008KT 15/11 A2985 RMK A01 T01480109  RH  078%=      5-min Rain = 0
KGO1 241127Z 17009KT 15/11 A2985 RMK A01 T01470109  RH  078%=      5-min Rain = 0
KGO1 241128Z 16009KT 15/11 A2985 RMK A01 T01470109  RH  078%=      5-min Rain = 0
KGO1 241129Z 17009KT 15/11 A2985 RMK A01 T01470109  RH  078%=      5-min Rain = 0
KGO1 241130Z 17010KT 15/11 A2985 RMK A01 T01480110  RH  078%=      5-min Rain = 0
KGO1 241131Z 17010KT 15/11 A2985 RMK A01 T01480110  RH  078%=      5-min Rain = 0
KGO1 241132Z 17010KT 15/11 A2985 RMK A01 T01480109  RH  077%=      5-min Rain = 0
KGO1 241133Z 17009KT 15/11 A2985 RMK A01 T01480109  RH  077%=      5-min Rain = 0
KGO1 241134Z 18009KT 15/11 A2985 RMK A01 T01490109  RH  077%=      5-min Rain = 0
KGO1 241135Z 17010KT 15/11 A2985 RMK A01 T01480109  RH  077%=      5-min Rain = 0
KGO1 241136Z 17010KT 15/11 A2985 RMK A01 T01480109  RH  077%=      5-min Rain = 0
KGO1 241137Z 17011KT 15/11 A2985 RMK A01 T01480109  RH  077%=      5-min Rain = 0
KGO1 241138Z 18010KT 15/11 A2986 RMK A01 T01490109  RH  077%=      5-min Rain = 0
KGO1 241139Z 17011KT 15/11 A2985 RMK A01 T01490109  RH  077%=      5-min Rain = 0
KGO1 241140Z 18011KT 15/11 A2985 RMK A01 T01500109  RH  076%=      5-min Rain = 0
KGO1 241141Z 18011KT 15/11 A2985 RMK A01 T01500108  RH  076%=      5-min Rain = 0
KGO1 241142Z 18011KT 15/11 A2985 RMK A01 T01510108  RH  076%=      5-min Rain = 0
KGO1 241143Z 18010KT 15/11 A2985 RMK A01 T01520109  RH  076%=      5-min Rain = 0
KGO1 241144Z 18010KT 15/11 A2985 RMK A01 T01520108  RH  075%=      5-min Rain = 0
KGO1 241145Z 18010KT 15/11 A2985 RMK A01 T01520109  RH  075%=      5-min Rain = 0
KGO1 241146Z 18010KT 15/11 A2985 RMK A01 T01520109  RH  075%=      5-min Rain = 0
KGO1 241147Z 18011KT 15/11 A2985 RMK A01 T01520109  RH  075%=      5-min Rain = 0
KGO1 241148Z 18011KT 15/11 A2985 RMK A01 T01520108  RH  075%=      5-min Rain = 0
KGO1 241149Z 18010KT 15/11 A2985 RMK A01 T01520108  RH  075%=      5-min Rain = 0
KGO1 241150Z 18010KT 15/11 A2985 RMK A01 T01520108  RH  075%=      5-min Rain = 0
KGO1 241151Z 18011KT 15/11 A2985 RMK A01 T01520108  RH  075%=      5-min Rain = 0
KGO1 241152Z 18010KT 15/11 A2985 RMK A01 T01520108  RH  075%=      5-min Rain = 0
KGO1 241153Z 18010KT 15/11 A2985 RMK A01 T01520107  RH  075%=      5-min Rain = 0
KGO1 241154Z 18011KT 15/11 A2985 RMK A01 T01530107  RH  074%=      5-min Rain = 0
KGO1 241155Z 18011KT 15/11 A2985 RMK A01 T01530107  RH  074%=      5-min Rain = 0
KGO1 241156Z 18011KT 15/11 A2985 RMK A01 T01540107  RH  073%=      5-min Rain = 0
KGO1 241157Z 18010KT 16/11 A2985 RMK A01 T01550107  RH  073%=      5-min Rain = 0
KGO1 241158Z 18011KT 16/11 A2985 RMK A01 T01550107  RH  073%=      5-min Rain = 0
KGO1 241159Z 18010KT 16/11 A2985 RMK A01 T01550107  RH  073%=      5-min Rain = 0
KGO1 241200Z 18010KT 16/11 A2985 RMK A01 T01550107  RH  073%=      5-min Rain = 0
KGO1 241201Z 17009KT 16/11 A2985 RMK A01 T01550107  RH  073%=      5-min Rain = 0
KGO1 241202Z 17010KT 16/11 A2985 RMK A01 T01550107  RH  073%=      5-min Rain = 0
KGO1 241203Z 17009KT 15/11 A2985 RMK A01 T01540107  RH  073%=      5-min Rain = 0
KGO1 241204Z 17010KT 15/11 A2985 RMK A01 T01540107  RH  073%=      5-min Rain = 0
KGO1 241205Z 17010KT 15/11 A2985 RMK A01 T01540107  RH  073%=      5-min Rain = 0
KGO1 241206Z 17010KT 15/11 A2985 RMK A01 T01540107  RH  073%=      5-min Rain = 0
KGO1 241207Z 17010KT 16/11 A2985 RMK A01 T01550107  RH  073%=      5-min Rain = 0
KGO1 241208Z 17010KT 15/11 A2985 RMK A01 T01540107  RH  073%=      5-min Rain = 0
KGO1 241209Z 17010KT 16/11 A2985 RMK A01 T01550106  RH  073%=      5-min Rain = 0
KGO1 241210Z 17010KT 16/11 A2985 RMK A01 T01550107  RH  073%=      5-min Rain = 0
KGO1 241211Z 17010KT 16/11 A2985 RMK A01 T01550107  RH  073%=      5-min Rain = 0
KGO1 241212Z 17009KT 16/11 A2985 RMK A01 T01550107  RH  073%=      5-min Rain = 0
KGO1 241213Z 18009KT 16/11 A2985 RMK A01 T01550107  RH  073%=      5-min Rain = 0
KGO1 241214Z 17009KT 16/11 A2985 RMK A01 T01550107  RH  073%=      5-min Rain = 0
KGO1 241215Z 18010KT 16/11 A2985 RMK A01 T01550107  RH  073%=      5-min Rain = 0
KGO1 241216Z 18010KT 16/11 A2985 RMK A01 T01560107  RH  073%=      5-min Rain = 0
KGO1 241217Z 18010KT 16/11 A2985 RMK A01 T01560107  RH  072%=      5-min Rain = 0
KGO1 241218Z 17011KT 16/11 A2985 RMK A01 T01560106  RH  072%=      5-min Rain = 0
KGO1 241219Z 18010KT 16/11 A2985 RMK A01 T01570107  RH  072%=      5-min Rain = 0
KGO1 241220Z 17010KT 16/11 A2985 RMK A01 T01570107  RH  072%=      5-min Rain = 0
KGO1 241221Z 17011KT 16/11 A2985 RMK A01 T01570107  RH  072%=      5-min Rain = 0
KGO1 241222Z 17010KT 16/11 A2985 RMK A01 T01570107  RH  072%=      5-min Rain = 0
KGO1 241223Z 17010KT 16/11 A2985 RMK A01 T01570107  RH  072%=      5-min Rain = 0
KGO1 241224Z 17011KT 16/11 A2985 RMK A01 T01570107  RH  072%=      5-min Rain = 0
KGO1 241225Z 17010KT 16/11 A2985 RMK A01 T01570107  RH  072%=      5-min Rain = 0
KGO1 241226Z 17011KT 16/11 A2985 RMK A01 T01570107  RH  072%=      5-min Rain = 0
KGO1 241227Z 17011KT 16/11 A2985 RMK A01 T01580106  RH  071%=      5-min Rain = 0
KGO1 241228Z 17011KT 16/11 A2984 RMK A01 T01580106  RH  071%=      5-min Rain = 0
KGO1 241229Z 17010KT 16/11 A2984 RMK A01 T01580106  RH  071%=      5-min Rain = 0
KGO1 241230Z 17010KT 16/11 A2984 RMK A01 T01590106  RH  071%=      5-min Rain = 0
KGO1 241231Z 16009KT 16/11 A2984 RMK A01 T01600107  RH  071%=      5-min Rain = 0
KGO1 241232Z 17009KT 16/11 A2984 RMK A01 T01600107  RH  071%=      5-min Rain = 0
KGO1 241233Z 17010KT 16/11 A2984 RMK A01 T01600108  RH  071%=      5-min Rain = 0
KGO1 241234Z 17009KT 16/11 A2984 RMK A01 T01620108  RH  071%=      5-min Rain = 0
KGO1 241235Z 17010KT 16/11 A2984 RMK A01 T01630108  RH  070%=      5-min Rain = 0
KGO1 241236Z 17010KT 16/11 A2984 RMK A01 T01630107  RH  069%=      5-min Rain = 0
KGO1 241237Z 17011KT 17/11 A2984 RMK A01 T01650107  RH  069%=      5-min Rain = 0
KGO1 241238Z 17010KT 17/11 A2984 RMK A01 T01660107  RH  068%=      5-min Rain = 0
KGO1 241239Z 17009KT 17/11 A2984 RMK A01 T01680108  RH  068%=      5-min Rain = 0
KGO1 241240Z 17010KT 17/11 A2984 RMK A01 T01690107  RH  067%=      5-min Rain = 0
KGO1 241241Z 17011KT 17/11 A2985 RMK A01 T01700107  RH  066%=      5-min Rain = 0
KGO1 241242Z 17010KT 17/11 A2985 RMK A01 T01710108  RH  066%=      5-min Rain = 0
KGO1 241243Z 17009KT 17/11 A2985 RMK A01 T01710109  RH  067%=      5-min Rain = 0
KGO1 241244Z 17011KT 17/11 A2985 RMK A01 T01720109  RH  067%=      5-min Rain = 0
KGO1 241245Z 17009KT 17/11 A2985 RMK A01 T01720109  RH  066%=      5-min Rain = 0
KGO1 241246Z 17011KT 17/11 A2985 RMK A01 T01720108  RH  066%=      5-min Rain = 0
KGO1 241247Z 17011KT 17/11 A2985 RMK A01 T01720107  RH  066%=      5-min Rain = 0
KGO1 241248Z 17010KT 17/11 A2985 RMK A01 T01720108  RH  066%=      5-min Rain = 0
KGO1 241249Z 17010KT 17/11 A2985 RMK A01 T01720108  RH  066%=      5-min Rain = 0
KGO1 241250Z 17011KT 17/11 A2985 RMK A01 T01720107  RH  066%=      5-min Rain = 0
KGO1 241251Z 16010KT 17/11 A2985 RMK A01 T01720107  RH  066%=      5-min Rain = 0
KGO1 241252Z 16011KT 17/11 A2985 RMK A01 T01720108  RH  066%=      5-min Rain = 0
KGO1 241253Z 16010KT 17/11 A2985 RMK A01 T01720107  RH  066%=      5-min Rain = 0
KGO1 241254Z 17011KT 17/11 A2985 RMK A01 T01720106  RH  065%=      5-min Rain = 0
KGO1 241255Z 17010KT 17/11 A2985 RMK A01 T01720107  RH  065%=      5-min Rain = 0
KGO1 241256Z 17009KT 17/11 A2985 RMK A01 T01720107  RH  065%=      5-min Rain = 0
KGO1 241257Z 17009KT 17/11 A2985 RMK A01 T01720108  RH  066%=      5-min Rain = 0
KGO1 241258Z 17008KT 17/11 A2985 RMK A01 T01720108  RH  066%=      5-min Rain = 0
KGO1 241259Z 17008KT 17/11 A2985 RMK A01 T01720108  RH  066%=      5-min Rain = 0
KGO1 241300Z 16009KT 17/11 A2985 RMK A01 T01720108  RH  066%=      5-min Rain = 0
KGO1 241301Z 16009KT 17/11 A2985 RMK A01 T01720108  RH  066%=      5-min Rain = 0
KGO1 241302Z 16010KT 17/11 A2985 RMK A01 T01720108  RH  066%=      5-min Rain = 0
KGO1 241303Z 16009KT 17/11 A2985 RMK A01 T01730108  RH  066%=      5-min Rain = 0
KGO1 241304Z 16009KT 17/11 A2985 RMK A01 T01740109  RH  066%=      5-min Rain = 0
KGO1 241305Z 16009KT 18/11 A2985 RMK A01 T01750109  RH  065%=      5-min Rain = 0
KGO1 241306Z 16010KT 18/11 A2985 RMK A01 T01760110  RH  065%=      5-min Rain = 0
KGO1 241307Z 16011KT 18/11 A2985 RMK A01 T01760109  RH  065%=      5-min Rain = 0
KGO1 241308Z 17012KT 18/11 A2985 RMK A01 T01770109  RH  064%=      5-min Rain = 0
KGO1 241309Z 17012KT 18/11 A2985 RMK A01 T01780109  RH  064%=      5-min Rain = 0
KGO1 241310Z 17011KT 18/11 A2985 RMK A01 T01790109  RH  064%=      5-min Rain = 0
KGO1 241311Z 17011KT 18/11 A2985 RMK A01 T01800110  RH  064%=      5-min Rain = 0
KGO1 241312Z 17011KT 18/11 A2985 RMK A01 T01810110  RH  063%=      5-min Rain = 0
KGO1 241313Z 17011KT 18/11 A2985 RMK A01 T01820111  RH  063%=      5-min Rain = 0
KGO1 241314Z 17011KT 18/11 A2985 RMK A01 T01830111  RH  063%=      5-min Rain = 0
KGO1 241315Z 17013KT 18/11 A2984 RMK A01 T01840110  RH  062%=      5-min Rain = 0
KGO1 241316Z 17011KT 18/11 A2984 RMK A01 T01840111  RH  062%=      5-min Rain = 0
KGO1 241317Z 17012KT 18/11 A2984 RMK A01 T01840111  RH  062%=      5-min Rain = 0
KGO1 241318Z 17012KT 18/11 A2984 RMK A01 T01840110  RH  062%=      5-min Rain = 0
KGO1 241319Z 17011KT 18/11 A2985 RMK A01 T01840112  RH  063%=      5-min Rain = 0
KGO1 241320Z 16012KT 19/11 A2985 RMK A01 T01850112  RH  062%=      5-min Rain = 0
KGO1 241321Z 17013KT 19/11 A2985 RMK A01 T01860112  RH  062%=      5-min Rain = 0
KGO1 241322Z 16013KT 19/11 A2985 RMK A01 T01870113  RH  062%=      5-min Rain = 0
KGO1 241323Z 17013KT 19/11 A2984 RMK A01 T01860112  RH  062%=      5-min Rain = 0
KGO1 241324Z 16012KT 19/11 A2984 RMK A01 T01860113  RH  062%=      5-min Rain = 0
KGO1 241325Z 16012KT 19/11 A2984 RMK A01 T01870114  RH  063%=      5-min Rain = 0
KGO1 241326Z 16013KT 19/11 A2984 RMK A01 T01870113  RH  062%=      5-min Rain = 0
KGO1 241327Z 16014KT 19/11 A2984 RMK A01 T01870113  RH  062%=      5-min Rain = 0
KGO1 241328Z 16013KT 19/11 A2984 RMK A01 T01870113  RH  062%=      5-min Rain = 0
KGO1 241329Z 16011KT 19/11 A2985 RMK A01 T01880114  RH  062%=      5-min Rain = 0
KGO1 241330Z 16013KT 19/11 A2985 RMK A01 T01900114  RH  061%=      5-min Rain = 0
KGO1 241331Z 16014KT 19/11 A2985 RMK A01 T01910114  RH  061%=      5-min Rain = 0
KGO1 241332Z 16014KT 19/11 A2985 RMK A01 T01920112  RH  060%=      5-min Rain = 0
KGO1 241333Z 16014KT 19/11 A2985 RMK A01 T01920112  RH  060%=      5-min Rain = 0
KGO1 241334Z 16013KT 19/11 A2985 RMK A01 T01920112  RH  060%=      5-min Rain = 0
KGO1 241335Z 16012KT 19/11 A2985 RMK A01 T01920113  RH  060%=      5-min Rain = 0
KGO1 241336Z 17013KT 19/11 A2985 RMK A01 T01930112  RH  059%=      5-min Rain = 0
KGO1 241337Z 16014KT 19/11 A2985 RMK A01 T01940113  RH  059%=      5-min Rain = 0
KGO1 241338Z 16013KT 20/11 A2985 RMK A01 T01950114  RH  060%=      5-min Rain = 0
KGO1 241339Z 17012KT 20/12 A2985 RMK A01 T01950115  RH  060%=      5-min Rain = 0
KGO1 241340Z 17016KT 20/11 A2985 RMK A01 T01960113  RH  059%=      5-min Rain = 0
KGO1 241341Z 17013KT 20/11 A2985 RMK A01 T01960113  RH  059%=      5-min Rain = 0
KGO1 241342Z 17013KT 20/11 A2985 RMK A01 T01960114  RH  059%=      5-min Rain = 0
KGO1 241343Z 17013KT 20/12 A2985 RMK A01 T01970115  RH  059%=      5-min Rain = 0
KGO1 241344Z 16013KT 20/11 A2985 RMK A01 T01980114  RH  058%=      5-min Rain = 0
KGO1 241345Z 16013KT 20/12 A2985 RMK A01 T01990115  RH  058%=      5-min Rain = 0
KGO1 241346Z 16013KT 20/12 A2985 RMK A01 T02000117  RH  059%=      5-min Rain = 0
KGO1 241347Z 16014KT 20/12 A2985 RMK A01 T02010116  RH  058%=      5-min Rain = 0
KGO1 241348Z 16013KT 20/12 A2985 RMK A01 T02010116  RH  058%=      5-min Rain = 0
KGO1 241349Z 16015KT 20/12 A2985 RMK A01 T02010116  RH  058%=      5-min Rain = 0
KGO1 241350Z 16014KT 20/12 A2985 RMK A01 T02010117  RH  058%=      5-min Rain = 0
KGO1 241351Z 16012KT 20/12 A2985 RMK A01 T02010119  RH  059%=      5-min Rain = 0
KGO1 241352Z 16012KT 20/12 A2985 RMK A01 T02030119  RH  058%=      5-min Rain = 0
KGO1 241353Z 15013KT 20/12 A2985 RMK A01 T02040119  RH  058%=      5-min Rain = 0
KGO1 241354Z 15011KT 20/12 A2985 RMK A01 T02040120  RH  058%=      5-min Rain = 0
KGO1 241355Z 16012KT 21/12 A2985 RMK A01 T02050120  RH  058%=      5-min Rain = 0
KGO1 241356Z 16011KT 21/12 A2985 RMK A01 T02050121  RH  058%=      5-min Rain = 0
KGO1 241357Z 16013KT 21/12 A2985 RMK A01 T02050121  RH  058%=      5-min Rain = 0
KGO1 241358Z 15013KT 21/12 A2985 RMK A01 T02060120  RH  058%=      5-min Rain = 0
KGO1 241359Z 16011KT 21/12 A2985 RMK A01 T02050119  RH  058%=      5-min Rain = 0
KGO1 241400Z 16011KT 21/12 A2985 RMK A01 T02050121  RH  058%=      5-min Rain = 0
KGO1 241401Z 16012KT 21/12 A2985 RMK A01 T02060121  RH  058%=      5-min Rain = 0
KGO1 241402Z 16012KT 21/12 A2985 RMK A01 T02070120  RH  058%=      5-min Rain = 0
KGO1 241403Z 16013KT 21/12 A2985 RMK A01 T02070122  RH  058%=      5-min Rain = 0
KGO1 241404Z 16015KT 21/12 A2985 RMK A01 T02080120  RH  057%=      5-min Rain = 0
KGO1 241405Z 16016KT 21/12 A2984 RMK A01 T02070119  RH  057%=      5-min Rain = 0
KGO1 241406Z 16014KT 21/12 A2984 RMK A01 T02060119  RH  058%=      5-min Rain = 0
KGO1 241407Z 17014KT 21/12 A2984 RMK A01 T02060119  RH  057%=      5-min Rain = 0
KGO1 241408Z 16015KT 21/12 A2984 RMK A01 T02060119  RH  057%=      5-min Rain = 0
KGO1 241409Z 16012KT 21/12 A2984 RMK A01 T02070119  RH  057%=      5-min Rain = 0
KGO1 241410Z 16014KT 21/12 A2984 RMK A01 T02090120  RH  057%=      5-min Rain = 0
KGO1 241411Z 16015KT 21/12 A2984 RMK A01 T02100119  RH  056%=      5-min Rain = 0
KGO1 241412Z 16014KT 21/12 A2984 RMK A01 T02100119  RH  056%=      5-min Rain = 0
KGO1 241413Z 17015KT 21/12 A2984 RMK A01 T02090119  RH  056%=      5-min Rain = 0
KGO1 241414Z 16015KT 21/12 A2984 RMK A01 T02090120  RH  057%=      5-min Rain = 0
KGO1 241415Z 17013KT 21/12 A2984 RMK A01 T02100121  RH  057%=      5-min Rain = 0
KGO1 241416Z 17013KT 21/12 A2984 RMK A01 T02110122  RH  057%=      5-min Rain = 0
KGO1 241417Z 17011KT 21/12 A2984 RMK A01 T02120122  RH  056%=      5-min Rain = 0
KGO1 241418Z 16012KT 21/12 A2984 RMK A01 T02140123  RH  056%=      5-min Rain = 0
KGO1 241419Z 17014KT 22/12 A2984 RMK A01 T02150123  RH  056%=      5-min Rain = 0
KGO1 241420Z 17014KT 22/12 A2984 RMK A01 T02160122  RH  055%=      5-min Rain = 0
KGO1 241421Z 17014KT 22/12 A2984 RMK A01 T02160122  RH  055%=      5-min Rain = 0
KGO1 241422Z 17014KT 22/12 A2984 RMK A01 T02170122  RH  055%=      5-min Rain = 0
KGO1 241423Z 18015KT 22/12 A2984 RMK A01 T02170122  RH  055%=      5-min Rain = 0
KGO1 241424Z 17014KT 22/12 A2984 RMK A01 T02170123  RH  055%=      5-min Rain = 0
KGO1 241425Z 17016KT 22/12 A2984 RMK A01 T02190122  RH  054%=      5-min Rain = 0
KGO1 241426Z 17014KT 22/12 A2984 RMK A01 T02190122  RH  054%=      5-min Rain = 0
KGO1 241427Z 17012G17KT 22/12 A2984 RMK A01 T02200122  RH  054%=      5-min Rain = 0
KGO1 241428Z 18012KT 22/12 A2984 RMK A01 T02220124  RH  054%=      5-min Rain = 0
KGO1 241429Z 17013G18KT 22/12 A2984 RMK A01 T02230122  RH  053%=      5-min Rain = 0
KGO1 241430Z 16014KT 22/12 A2984 RMK A01 T02240123  RH  053%=      5-min Rain = 0
KGO1 241431Z 18016KT 22/12 A2984 RMK A01 T02240121  RH  052%=      5-min Rain = 0
KGO1 241432Z 18014KT 22/12 A2984 RMK A01 T02230123  RH  053%=      5-min Rain = 0
KGO1 241433Z 17015KT 22/12 A2984 RMK A01 T02240123  RH  053%=      5-min Rain = 0
KGO1 241434Z 17015KT 22/12 A2984 RMK A01 T02240122  RH  052%=      5-min Rain = 0
KGO1 241435Z 17014KT 23/12 A2984 RMK A01 T02250124  RH  053%=      5-min Rain = 0
KGO1 241436Z 16013KT 23/13 A2984 RMK A01 T02260125  RH  053%=      5-min Rain = 0
KGO1 241437Z 17016KT 23/13 A2984 RMK A01 T02270125  RH  052%=      5-min Rain = 0
KGO1 241438Z 17013KT 23/12 A2984 RMK A01 T02270124  RH  052%=      5-min Rain = 0
KGO1 241439Z 17014KT 23/13 A2984 RMK A01 T02270127  RH  053%=      5-min Rain = 0
KGO1 241440Z 18014KT 23/13 A2984 RMK A01 T02280125  RH  052%=      5-min Rain = 0
KGO1 241441Z 17013KT 23/13 A2984 RMK A01 T02300126  RH  052%=      5-min Rain = 0
KGO1 241442Z 17013KT 23/13 A2984 RMK A01 T02320128  RH  052%=      5-min Rain = 0
KGO1 241443Z 17013KT 23/13 A2984 RMK A01 T02330128  RH  052%=      5-min Rain = 0
KGO1 241444Z 18017G22KT 23/13 A2984 RMK A01 T02340128  RH  051%=      5-min Rain = 0
KGO1 241445Z 19020G25KT 23/12 A2984 RMK A01 T02340124  RH  050%=      5-min Rain = 0
KGO1 241446Z 19017KT 23/12 A2984 RMK A01 T02330124  RH  051%=      5-min Rain = 0
KGO1 241447Z 18017G23KT 23/13 A2984 RMK A01 T02330127  RH  051%=      5-min Rain = 0
KGO1 241448Z 19018G23KT 24/13 A2984 RMK A01 T02350126  RH  050%=      5-min Rain = 0
KGO1 241449Z 18015KT 24/13 A2984 RMK A01 T02370126  RH  050%=      5-min Rain = 0
KGO1 241450Z 17017G22KT 24/13 A2984 RMK A01 T02360127  RH  050%=      5-min Rain = 0
KGO1 241451Z 18014KT 23/13 A2984 RMK A01 T02330127  RH  051%=      5-min Rain = 0
KGO1 241452Z 17013KT 23/13 A2984 RMK A01 T02320129  RH  052%=      5-min Rain = 0
KGO1 241453Z 18016KT 23/13 A2984 RMK A01 T02320127  RH  052%=      5-min Rain = 0
KGO1 241454Z 18016KT 23/13 A2984 RMK A01 T02320127  RH  052%=      5-min Rain = 0
KGO1 241455Z 18015KT 23/13 A2984 RMK A01 T02310126  RH  052%=      5-min Rain = 0
KGO1 241456Z 17015KT 23/13 A2984 RMK A01 T02300128  RH  052%=      5-min Rain = 0
KGO1 241457Z 17016KT 23/13 A2984 RMK A01 T02320128  RH  052%=      5-min Rain = 0
KGO1 241458Z 17016KT 23/13 A2984 RMK A01 T02320128  RH  052%=      5-min Rain = 0
KGO1 241459Z 17016KT 23/13 A2984 RMK A01 T02310127  RH  052%=      5-min Rain = 0
KGO1 241500Z 18015KT 23/13 A2984 RMK A01 T02310128  RH  052%=      5-min Rain = 0
KGO1 241501Z 18015KT 23/13 A2984 RMK A01 T02320129  RH  052%=      5-min Rain = 0
KGO1 241502Z 18014KT 23/13 A2984 RMK A01 T02340129  RH  052%=      5-min Rain = 0
KGO1 241503Z 17015KT 24/13 A2984 RMK A01 T02360129  RH  051%=      5-min Rain = 0
KGO1 241504Z 17017KT 24/13 A2984 RMK A01 T02360128  RH  051%=      5-min Rain = 0
KGO1 241505Z 18016KT 24/13 A2984 RMK A01 T02360128  RH  051%=      5-min Rain = 0
KGO1 241506Z 18014KT 24/13 A2984 RMK A01 T02360129  RH  051%=      5-min Rain = 0
KGO1 241507Z 19021KT 24/13 A2984 RMK A01 T02370127  RH  050%=      5-min Rain = 0
KGO1 241508Z 21019KT 24/13 A2984 RMK A01 T02390126  RH  049%=      5-min Rain = 0
KGO1 241509Z 20017KT 24/13 A2984 RMK A01 T02400126  RH  049%=      5-min Rain = 0
KGO1 241510Z 19018KT 24/13 A2984 RMK A01 T02410127  RH  049%=      5-min Rain = 0
KGO1 241511Z 19017KT 24/13 A2984 RMK A01 T02430128  RH  049%=      5-min Rain = 0
KGO1 241512Z 20016KT 25/13 A2984 RMK A01 T02450127  RH  048%=      5-min Rain = 0
KGO1 241513Z 19018G24KT 25/13 A2984 RMK A01 T02460129  RH  048%=      5-min Rain = 0
KGO1 241514Z 19019KT 25/13 A2984 RMK A01 T02470127  RH  047%=      5-min Rain = 0
KGO1 241515Z 19019KT 25/13 A2984 RMK A01 T02460127  RH  048%=      5-min Rain = 0
KGO1 241516Z 19017KT 25/13 A2984 RMK A01 T02450127  RH  048%=      5-min Rain = 0
KGO1 241517Z 19015KT 25/13 A2984 RMK A01 T02450128  RH  048%=      5-min Rain = 0
KGO1 241518Z 18016KT 25/13 A2984 RMK A01 T02470128  RH  047%=      5-min Rain = 0
KGO1 241519Z 20014KT 25/13 A2984 RMK A01 T02480129  RH  047%=      5-min Rain = 0
KGO1 241520Z 20018KT 25/13 A2984 RMK A01 T02520130  RH  047%=      5-min Rain = 0
KGO1 241521Z 19015KT 25/13 A2985 RMK A01 T02520129  RH  046%=      5-min Rain = 0
KGO1 241522Z 18021KT 25/13 A2984 RMK A01 T02510129  RH  047%=      5-min Rain = 0
KGO1 241523Z 18020KT 25/13 A2985 RMK A01 T02490127  RH  047%=      5-min Rain = 0
KGO1 241524Z 18018KT 25/13 A2985 RMK A01 T02470128  RH  047%=      5-min Rain = 0
KGO1 241525Z 19019KT 25/13 A2985 RMK A01 T02470128  RH  047%=      5-min Rain = 0
KGO1 241526Z 19017KT 25/13 A2985 RMK A01 T02470127  RH  047%=      5-min Rain = 0
KGO1 241527Z 19016KT 25/13 A2985 RMK A01 T02460127  RH  047%=      5-min Rain = 0
KGO1 241528Z 18017KT 25/13 A2985 RMK A01 T02460129  RH  048%=      5-min Rain = 0
KGO1 241529Z 19018KT 25/13 A2985 RMK A01 T02500129  RH  047%=      5-min Rain = 0
KGO1 241530Z 19018KT 25/13 A2985 RMK A01 T02510129  RH  047%=      5-min Rain = 0
KGO1 241531Z 20019G24KT 25/13 A2985 RMK A01 T02510127  RH  046%=      5-min Rain = 0
KGO1 241532Z 20016KT 25/13 A2985 RMK A01 T02480127  RH  047%=      5-min Rain = 0
KGO1 241533Z 21015KT 25/13 A2985 RMK A01 T02470128  RH  048%=      5-min Rain = 0
KGO1 241534Z 21015KT 25/13 A2985 RMK A01 T02490129  RH  047%=      5-min Rain = 0
KGO1 241535Z 19013KT 25/13 A2985 RMK A01 T02500129  RH  047%=      5-min Rain = 0
KGO1 241536Z 18016KT 25/13 A2985 RMK A01 T02520131  RH  047%=      5-min Rain = 0
KGO1 241537Z 19015KT 26/13 A2985 RMK A01 T02550130  RH  046%=      5-min Rain = 0
KGO1 241538Z 20015KT 26/13 A2985 RMK A01 T02550129  RH  046%=      5-min Rain = 0
KGO1 241539Z 19012KT 26/13 A2985 RMK A01 T02550131  RH  046%=      5-min Rain = 0
KGO1 241540Z 19018KT 26/13 A2985 RMK A01 T02570130  RH  045%=      5-min Rain = 0
KGO1 241541Z 18018KT 26/13 A2985 RMK A01 T02550129  RH  045%=      5-min Rain = 0
KGO1 241542Z 18017KT 25/13 A2985 RMK A01 T02530128  RH  046%=      5-min Rain = 0
KGO1 241543Z 19012G17KT 25/13 A2985 RMK A01 T02500129  RH  047%=      5-min Rain = 0
KGO1 241544Z 18016G22KT 25/13 A2985 RMK A01 T02510131  RH  047%=      5-min Rain = 0
KGO1 241545Z 20019KT 25/13 A2985 RMK A01 T02540130  RH  046%=      5-min Rain = 0
KGO1 241546Z 22016KT 25/13 A2985 RMK A01 T02540130  RH  046%=      5-min Rain = 0
KGO1 241547Z 20013KT 25/13 A2985 RMK A01 T02540131  RH  046%=      5-min Rain = 0
KGO1 241548Z 20012G17KT 26/13 A2985 RMK A01 T02570130  RH  045%=      5-min Rain = 0
KGO1 241549Z 19013G18KT 26/13 A2985 RMK A01 T02580132  RH  046%=      5-min Rain = 0
KGO1 241550Z 17018KT 26/13 A2985 RMK A01 T02590130  RH  045%=      5-min Rain = 0
KGO1 241551Z 20016KT 26/13 A2985 RMK A01 T02590131  RH  045%=      5-min Rain = 0
KGO1 241552Z 19014KT 26/13 A2985 RMK A01 T02580131  RH  045%=      5-min Rain = 0
KGO1 241553Z 19014KT 26/13 A2985 RMK A01 T02570131  RH  046%=      5-min Rain = 0
KGO1 241554Z 20013KT 26/13 A2985 RMK A01 T02560131  RH  046%=      5-min Rain = 0
KGO1 241555Z 18011KT 25/13 A2985 RMK A01 T02540131  RH  046%=      5-min Rain = 0
KGO1 241556Z 19014KT 26/13 A2985 RMK A01 T02560131  RH  046%=      5-min Rain = 0
KGO1 241557Z 19011KT 26/13 A2985 RMK A01 T02560132  RH  046%=      5-min Rain = 0
KGO1 241558Z 19014KT 26/13 A2985 RMK A01 T02600133  RH  046%=      5-min Rain = 0
KGO1 241559Z 19012KT 26/13 A2985 RMK A01 T02600130  RH  045%=      5-min Rain = 0
KGO1 241600Z 18013KT 26/13 A2985 RMK A01 T02580133  RH  046%=      5-min Rain = 0
KGO1 241601Z 19015KT 26/13 A2985 RMK A01 T02610131  RH  045%=      5-min Rain = 0
KGO1 241602Z 18015KT 26/13 A2985 RMK A01 T02600132  RH  045%=      5-min Rain = 0
KGO1 241603Z 18011KT 26/13 A2985 RMK A01 T02600131  RH  045%=      5-min Rain = 0
KGO1 241604Z 18011KT 26/13 A2985 RMK A01 T02580132  RH  046%=      5-min Rain = 0
KGO1 241605Z 18009KT 26/13 A2985 RMK A01 T02590133  RH  046%=      5-min Rain = 0
KGO1 241606Z 20008KT 26/13 A2985 RMK A01 T02600134  RH  046%=      5-min Rain = 0
KGO1 241607Z 21011KT 26/14 A2985 RMK A01 T02640135  RH  045%=      5-min Rain = 0
KGO1 241608Z 20010KT 27/13 A2985 RMK A01 T02660134  RH  044%=      5-min Rain = 0
KGO1 241609Z 20014KT 27/13 A2985 RMK A01 T02650134  RH  044%=      5-min Rain = 0
KGO1 241610Z 20014KT 26/13 A2985 RMK A01 T02640132  RH  044%=      5-min Rain = 0
KGO1 241611Z 20012KT 27/13 A2985 RMK A01 T02660133  RH  044%=      5-min Rain = 0
KGO1 241612Z 20012KT 27/13 A2985 RMK A01 T02650132  RH  044%=      5-min Rain = 0
KGO1 241613Z 21012KT 26/13 A2985 RMK A01 T02640132  RH  044%=      5-min Rain = 0
KGO1 241614Z 21010KT 26/13 A2985 RMK A01 T02630133  RH  045%=      5-min Rain = 0
KGO1 241615Z 19013G20KT 27/14 A2985 RMK A01 T02660135  RH  045%=      5-min Rain = 0
KGO1 241616Z 19012KT 27/13 A2985 RMK A01 T02670132  RH  043%=      5-min Rain = 0
KGO1 241617Z 19013KT 26/13 A2985 RMK A01 T02630133  RH  045%=      5-min Rain = 0
KGO1 241618Z 20011KT 26/13 A2985 RMK A01 T02630133  RH  045%=      5-min Rain = 0
KGO1 241619Z 19010KT 26/13 A2985 RMK A01 T02640129  RH  043%=      5-min Rain = 0
KGO1 241620Z 18010KT 27/13 A2985 RMK A01 T02660132  RH  044%=      5-min Rain = 0
KGO1 241621Z 17011KT 27/14 A2985 RMK A01 T02660135  RH  044%=      5-min Rain = 0
KGO1 241622Z 18016KT 27/13 A2985 RMK A01 T02670134  RH  044%=      5-min Rain = 0
KGO1 241623Z 18012KT 27/13 A2985 RMK A01 T02670133  RH  044%=      5-min Rain = 0
KGO1 241624Z 17009KT 27/13 A2985 RMK A01 T02660134  RH  044%=      5-min Rain = 0
KGO1 241625Z 18011G17KT 27/13 A2985 RMK A01 T02670134  RH  044%=      5-min Rain = 0
KGO1 241626Z 18012KT 27/13 A2985 RMK A01 T02680132  RH  043%=      5-min Rain = 0
KGO1 241627Z 18012KT 27/13 A2985 RMK A01 T02680133  RH  043%=      5-min Rain = 0
KGO1 241628Z 18011KT 27/13 A2985 RMK A01 T02680132  RH  043%=      5-min Rain = 0
KGO1 241629Z 17009KT 27/13 A2985 RMK A01 T02670133  RH  044%=      5-min Rain = 0
KGO1 241630Z 18012KT 27/13 A2985 RMK A01 T02700134  RH  043%=      5-min Rain = 0
KGO1 241631Z 17011G16KT 27/13 A2985 RMK A01 T02700132  RH  042%=      5-min Rain = 0
KGO1 241632Z 18010KT 27/13 A2985 RMK A01 T02700134  RH  043%=      5-min Rain = 0
KGO1 241633Z 18013KT 27/13 A2985 RMK A01 T02720134  RH  042%=      5-min Rain = 0
KGO1 241634Z 19013KT 27/13 A2984 RMK A01 T02730133  RH  042%=      5-min Rain = 0
KGO1 241635Z 19013KT 27/13 A2984 RMK A01 T02730132  RH  042%=      5-min Rain = 0
KGO1 241636Z 18017KT 27/13 A2984 RMK A01 T02720133  RH  042%=      5-min Rain = 0
KGO1 241637Z 18016KT 27/13 A2984 RMK A01 T02720133  RH  042%=      5-min Rain = 0
KGO1 241638Z 19012G18KT 27/13 A2984 RMK A01 T02730133  RH  042%=      5-min Rain = 0
KGO1 241639Z 18013KT 27/13 A2984 RMK A01 T02730133  RH  042%=      5-min Rain = 0
KGO1 241640Z 19013KT 27/13 A2984 RMK A01 T02720134  RH  043%=      5-min Rain = 0
KGO1 241641Z 19010KT 28/14 A2984 RMK A01 T02750135  RH  042%=      5-min Rain = 0
KGO1 241642Z 17011G16KT 28/14 A2984 RMK A01 T02780135  RH  041%=      5-min Rain = 0
KGO1 241643Z 16012KT 28/13 A2984 RMK A01 T02780133  RH  041%=      5-min Rain = 0
KGO1 241644Z 18011KT 28/14 A2984 RMK A01 T02790135  RH  041%=      5-min Rain = 0
KGO1 241645Z 18015G20KT 28/13 A2984 RMK A01 T02800134  RH  041%=      5-min Rain = 0
KGO1 241646Z 18013KT 28/13 A2984 RMK A01 T02780133  RH  041%=      5-min Rain = 0
KGO1 241647Z 17010KT 28/13 A2984 RMK A01 T02760133  RH  041%=      5-min Rain = 0
KGO1 241648Z 18012KT 28/14 A2984 RMK A01 T02750135  RH  042%=      5-min Rain = 0
KGO1 241649Z 18013KT 28/14 A2984 RMK A01 T02750135  RH  042%=      5-min Rain = 0
KGO1 241650Z 18011KT 28/14 A2984 RMK A01 T02750135  RH  042%=      5-min Rain = 0
KGO1 241651Z 17011KT 28/14 A2984 RMK A01 T02760137  RH  042%=      5-min Rain = 0
KGO1 241652Z 19014KT 28/14 A2984 RMK A01 T02790136  RH  042%=      5-min Rain = 0
KGO1 241653Z 20012KT 28/14 A2984 RMK A01 T02810135  RH  041%=      5-min Rain = 0
KGO1 241654Z 21011KT 28/13 A2984 RMK A01 T02810131  RH  040%=      5-min Rain = 0
KGO1 241655Z 20008KT 28/13 A2984 RMK A01 T02790131  RH  040%=      5-min Rain = 0
KGO1 241656Z 21009KT 28/13 A2984 RMK A01 T02790134  RH  041%=      5-min Rain = 0
KGO1 241657Z 20013KT 28/13 A2984 RMK A01 T02820134  RH  040%=      5-min Rain = 0
KGO1 241658Z 20015G21KT 28/13 A2984 RMK A01 T02820133  RH  040%=      5-min Rain = 0
KGO1 241659Z 20016G21KT 28/13 A2984 RMK A01 T02810132  RH  040%=      5-min Rain = 0
KGO1 241700Z 21012KT 28/13 A2984 RMK A01 T02780131  RH  040%=      5-min Rain = 0
KGO1 241701Z 21012KT 28/14 A2984 RMK A01 T02770135  RH  042%=      5-min Rain = 0
KGO1 241702Z 21013KT 28/13 A2984 RMK A01 T02810133  RH  040%=      5-min Rain = 0
KGO1 241703Z 22013KT 28/13 A2984 RMK A01 T02810131  RH  040%=      5-min Rain = 0
KGO1 241704Z 21014KT 28/13 A2984 RMK A01 T02820133  RH  040%=      5-min Rain = 0
KGO1 241705Z 21015G24KT 29/14 A2984 RMK A01 T02880136  RH  039%=      5-min Rain = 0
KGO1 241706Z 21015G21KT 29/13 A2984 RMK A01 T02890131  RH  038%=      5-min Rain = 0
KGO1 241707Z 20013KT 28/13 A2984 RMK A01 T02840131  RH  039%=      5-min Rain = 0
KGO1 241708Z 20014KT 28/13 A2984 RMK A01 T02820131  RH  039%=      5-min Rain = 0
KGO1 241709Z 20008KT 28/13 A2984 RMK A01 T02810129  RH  039%=      5-min Rain = 0
KGO1 241710Z 21006KT 28/13 A2984 RMK A01 T02800130  RH  040%=      5-min Rain = 0
KGO1 241711Z 22007KT 28/13 A2984 RMK A01 T02790132  RH  040%=      5-min Rain = 0
KGO1 241712Z 18014KT 28/14 A2984 RMK A01 T02810135  RH  041%=      5-min Rain = 0
KGO1 241713Z 18012KT 28/13 A2984 RMK A01 T02840134  RH  039%=      5-min Rain = 0
KGO1 241714Z 19011KT 29/14 A2984 RMK A01 T02850136  RH  040%=      5-min Rain = 0
KGO1 241715Z 19009KT 29/13 A2984 RMK A01 T02860132  RH  039%=      5-min Rain = 0
KGO1 241716Z 19011G19KT 28/14 A2984 RMK A01 T02840135  RH  040%=      5-min Rain = 0
KGO1 241717Z 19016KT 29/13 A2983 RMK A01 T02860133  RH  039%=      5-min Rain = 0
KGO1 241718Z 18014KT 29/13 A2984 RMK A01 T02860133  RH  039%=      5-min Rain = 0
KGO1 241719Z 18014KT 29/13 A2983 RMK A01 T02860132  RH  039%=      5-min Rain = 0
KGO1 241720Z 19011KT 28/13 A2983 RMK A01 T02840132  RH  039%=      5-min Rain = 0
KGO1 241721Z 18012KT 28/13 A2983 RMK A01 T02840134  RH  040%=      5-min Rain = 0
KGO1 241722Z 19013KT 29/13 A2983 RMK A01 T02860133  RH  039%=      5-min Rain = 0
KGO1 241723Z 19015KT 29/14 A2983 RMK A01 T02870135  RH  039%=      5-min Rain = 0
KGO1 241724Z 21013KT 29/14 A2983 RMK A01 T02890135  RH  039%=      5-min Rain = 0
KGO1 241725Z 19013KT 29/14 A2983 RMK A01 T02880135  RH  039%=      5-min Rain = 0
KGO1 241726Z 19009KT 29/13 A2983 RMK A01 T02860133  RH  039%=      5-min Rain = 0
KGO1 241727Z 18007KT 29/14 A2983 RMK A01 T02850135  RH  040%=      5-min Rain = 0
KGO1 241728Z 19010KT 29/13 A2983 RMK A01 T02860134  RH  039%=      5-min Rain = 0
KGO1 241729Z 21016KT 29/13 A2983 RMK A01 T02880131  RH  038%=      5-min Rain = 0
KGO1 241730Z 21017KT 29/13 A2983 RMK A01 T02910128  RH  037%=      5-min Rain = 0
KGO1 241731Z 21016KT 29/13 A2984 RMK A01 T02910127  RH  036%=      5-min Rain = 0
KGO1 241732Z 21017KT 29/13 A2984 RMK A01 T02910128  RH  037%=      5-min Rain = 0
KGO1 241733Z 20013KT 29/13 A2984 RMK A01 T02900130  RH  037%=      5-min Rain = 0
KGO1 241734Z 20011KT 29/13 A2984 RMK A01 T02870130  RH  038%=      5-min Rain = 0
KGO1 241735Z 21010KT 29/13 A2983 RMK A01 T02850129  RH  038%=      5-min Rain = 0
KGO1 241736Z 22010KT 29/13 A2983 RMK A01 T02860130  RH  038%=      5-min Rain = 0
KGO1 241737Z 21012KT 29/13 A2983 RMK A01 T02880130  RH  038%=      5-min Rain = 0
KGO1 241738Z 22012KT 29/13 A2983 RMK A01 T02940131  RH  037%=      5-min Rain = 0
KGO1 241739Z 21013KT 29/13 A2983 RMK A01 T02940127  RH  036%=      5-min Rain = 0
KGO1 241740Z 21013KT 29/13 A2983 RMK A01 T02930127  RH  036%=      5-min Rain = 0
KGO1 241741Z 21013KT 29/13 A2983 RMK A01 T02940125  RH  035%=      5-min Rain = 0
KGO1 241742Z 22015KT 29/13 A2983 RMK A01 T02920127  RH  036%=      5-min Rain = 0
KGO1 241743Z 20016KT 29/13 A2983 RMK A01 T02930126  RH  036%=      5-min Rain = 0
KGO1 241744Z 20013KT 29/12 A2983 RMK A01 T02930123  RH  035%=      5-min Rain = 0
KGO1 241745Z 18013KT 29/12 A2983 RMK A01 T02930123  RH  035%=      5-min Rain = 0
KGO1 241746Z 20011KT 29/12 A2983 RMK A01 T02880122  RH  036%=      5-min Rain = 0
KGO1 241747Z 19012KT 29/12 A2983 RMK A01 T02860124  RH  037%=      5-min Rain = 0
KGO1 241748Z 18012KT 29/12 A2983 RMK A01 T02890123  RH  036%=      5-min Rain = 0
KGO1 241749Z 19009KT 29/12 A2983 RMK A01 T02900122  RH  036%=      5-min Rain = 0
KGO1 241750Z 19009G14KT 29/13 A2983 RMK A01 T02900126  RH  036%=      5-min Rain = 0
KGO1 241751Z 20015KT 29/13 A2983 RMK A01 T02940129  RH  036%=      5-min Rain = 0
KGO1 241752Z 19016KT 30/13 A2983 RMK A01 T02980128  RH  035%=      5-min Rain = 0
KGO1 241753Z 19013KT 30/13 A2983 RMK A01 T02950126  RH  035%=      5-min Rain = 0
KGO1 241754Z 19011KT 29/13 A2983 RMK A01 T02920128  RH  036%=      5-min Rain = 0
KGO1 241755Z 19014KT 30/13 A2983 RMK A01 T02970129  RH  036%=      5-min Rain = 0
KGO1 241756Z 19012G19KT 30/13 A2983 RMK A01 T02970126  RH  035%=      5-min Rain = 0
KGO1 241757Z 18014KT 29/13 A2983 RMK A01 T02930126  RH  036%=      5-min Rain = 0
KGO1 241758Z 17016KT 29/13 A2983 RMK A01 T02920127  RH  036%=      5-min Rain = 0
KGO1 241759Z 17018KT 29/13 A2983 RMK A01 T02930127  RH  036%=      5-min Rain = 0
KGO1 241800Z 19016KT 30/13 A2983 RMK A01 T02960126  RH  035%=      5-min Rain = 0
KGO1 241801Z 19015KT 30/13 A2983 RMK A01 T02970126  RH  035%=      5-min Rain = 0
KGO1 241802Z 19011KT 30/13 A2983 RMK A01 T02960127  RH  035%=      5-min Rain = 0
KGO1 241803Z 20005KT 29/13 A2983 RMK A01 T02940126  RH  036%=      5-min Rain = 0
KGO1 241804Z 19006KT 29/13 A2983 RMK A01 T02920127  RH  036%=      5-min Rain = 0
KGO1 241805Z 19013KT 29/13 A2983 RMK A01 T02930128  RH  036%=      5-min Rain = 0
KGO1 241806Z 18012KT 30/12 A2983 RMK A01 T02960124  RH  035%=      5-min Rain = 0
KGO1 241807Z 18009KT 29/13 A2983 RMK A01 T02940126  RH  035%=      5-min Rain = 0
KGO1 241808Z 19016KT 30/13 A2983 RMK A01 T02960128  RH  035%=      5-min Rain = 0
KGO1 241809Z 18016KT 30/13 A2983 RMK A01 T03010126  RH  034%=      5-min Rain = 0
KGO1 241810Z 18016KT 30/13 A2983 RMK A01 T03010127  RH  034%=      5-min Rain = 0
KGO1 241811Z 20010G15KT 30/12 A2983 RMK A01 T03000122  RH  033%=      5-min Rain = 0
KGO1 241812Z 20007KT 29/12 A2983 RMK A01 T02940123  RH  035%=      5-min Rain = 0
KGO1 241813Z 20010KT 29/13 A2983 RMK A01 T02920128  RH  036%=      5-min Rain = 0
KGO1 241814Z 18009G14KT 30/12 A2982 RMK A01 T03000122  RH  034%=      5-min Rain = 0
KGO1 241815Z 17010KT 30/12 A2982 RMK A01 T02980123  RH  034%=      5-min Rain = 0
KGO1 241816Z 19014G20KT 30/12 A2982 RMK A01 T02990121  RH  034%=      5-min Rain = 0
KGO1 241817Z 19015KT 30/12 A2982 RMK A01 T03010124  RH  034%=      5-min Rain = 0
KGO1 241818Z 20013KT 30/12 A2982 RMK A01 T03000124  RH  034%=      5-min Rain = 0
KGO1 241819Z 20016KT 30/13 A2982 RMK A01 T02990126  RH  035%=      5-min Rain = 0
KGO1 241820Z 20012G18KT 30/13 A2982 RMK A01 T03000125  RH  034%=      5-min Rain = 0
KGO1 241821Z 20013KT 30/13 A2982 RMK A01 T02990126  RH  035%=      5-min Rain = 0
KGO1 241822Z 22012KT 30/12 A2982 RMK A01 T02980124  RH  034%=      5-min Rain = 0
KGO1 241823Z 23009KT 30/12 A2982 RMK A01 T02970124  RH  034%=      5-min Rain = 0
KGO1 241824Z 21006KT 30/12 A2982 RMK A01 T02980124  RH  034%=      5-min Rain = 0
KGO1 241825Z 18009G15KT 30/13 A2982 RMK A01 T02980125  RH  035%=      5-min Rain = 0
KGO1 241826Z 18011G17KT 30/12 A2982 RMK A01 T03000124  RH  034%=      5-min Rain = 0
KGO1 241827Z 17014KT 30/12 A2982 RMK A01 T03020124  RH  034%=      5-min Rain = 0
KGO1 241828Z 17014KT 30/12 A2982 RMK A01 T03040121  RH  033%=      5-min Rain = 0
KGO1 241829Z 17013KT 31/12 A2982 RMK A01 T03060122  RH  032%=      5-min Rain = 0
KGO1 241830Z 17016KT 31/12 A2982 RMK A01 T03070123  RH  032%=      5-min Rain = 0
KGO1 241831Z 18014KT 31/12 A2982 RMK A01 T03080121  RH  032%=      5-min Rain = 0
KGO1 241832Z 17011G17KT 31/12 A2982 RMK A01 T03060120  RH  032%=      5-min Rain = 0
KGO1 241833Z 16010KT 30/12 A2982 RMK A01 T03040121  RH  033%=      5-min Rain = 0
KGO1 241834Z 15010KT 30/12 A2982 RMK A01 T03030120  RH  032%=      5-min Rain = 0
KGO1 241835Z 17007KT 30/12 A2982 RMK A01 T03010120  RH  033%=      5-min Rain = 0
KGO1 241836Z 16007G12KT 30/12 A2981 RMK A01 T02990120  RH  033%=      5-min Rain = 0
KGO1 241837Z 19013KT 30/12 A2982 RMK A01 T02990123  RH  034%=      5-min Rain = 0
KGO1 241838Z 18010KT 30/12 A2982 RMK A01 T03040120  RH  032%=      5-min Rain = 0
KGO1 241839Z 21010KT 30/12 A2981 RMK A01 T03030123  RH  033%=      5-min Rain = 0
KGO1 241840Z 22005KT 30/12 A2981 RMK A01 T03020120  RH  033%=      5-min Rain = 0
KGO1 241841Z 20010KT 30/12 A2981 RMK A01 T03010122  RH  033%=      5-min Rain = 0
KGO1 241842Z 19011G16KT 30/12 A2981 RMK A01 T03020123  RH  033%=      5-min Rain = 0
KGO1 241843Z 20015KT 31/12 A2981 RMK A01 T03060121  RH  032%=      5-min Rain = 0
KGO1 241844Z 21010KT 31/12 A2981 RMK A01 T03060121  RH  032%=      5-min Rain = 0
KGO1 241845Z 17011KT 31/12 A2981 RMK A01 T03060122  RH  032%=      5-min Rain = 0
KGO1 241846Z 16010KT 31/12 A2981 RMK A01 T03080119  RH  031%=      5-min Rain = 0
KGO1 241847Z 18011KT 31/12 A2981 RMK A01 T03080118  RH  031%=      5-min Rain = 0
KGO1 241848Z 19010G16KT 30/12 A2981 RMK A01 T03040117  RH  032%=      5-min Rain = 0
KGO1 241849Z 20014KT 31/12 A2981 RMK A01 T03060120  RH  032%=      5-min Rain = 0
KGO1 241850Z 19008KT 31/12 A2981 RMK A01 T03100115  RH  030%=      5-min Rain = 0
KGO1 241851Z 18013KT 31/11 A2981 RMK A01 T03090112  RH  030%=      5-min Rain = 0
KGO1 241852Z 16011KT 31/11 A2981 RMK A01 T03110107  RH  029%=      5-min Rain = 0
KGO1 241853Z 18010KT 31/11 A2981 RMK A01 T03140111  RH  029%=      5-min Rain = 0
KGO1 241854Z 19010KT 32/11 A2981 RMK A01 T03160113  RH  029%=      5-min Rain = 0
KGO1 241855Z 19012KT 32/12 A2981 RMK A01 T03180117  RH  029%=      5-min Rain = 0
KGO1 241856Z 22011KT 32/12 A2981 RMK A01 T03160120  RH  030%=      5-min Rain = 0
KGO1 241857Z 21006KT 31/12 A2981 RMK A01 T03140120  RH  030%=      5-min Rain = 0
KGO1 241858Z 19010KT 31/12 A2981 RMK A01 T03110119  RH  031%=      5-min Rain = 0
KGO1 241859Z 18013KT 31/12 A2981 RMK A01 T03100115  RH  030%=      5-min Rain = 0
KGO1 241900Z 16010KT 31/12 A2981 RMK A01 T03080115  RH  031%=      5-min Rain = 0
KGO1 241901Z 17014KT 31/12 A2981 RMK A01 T03120116  RH  030%=      5-min Rain = 0
KGO1 241902Z 16012KT 32/11 A2981 RMK A01 T03190114  RH  029%=      5-min Rain = 0
KGO1 241903Z 15010KT 32/12 A298 RMK A01 T03190115  RH  029%=      5-min Rain = 0
KGO1 241904Z 16011KT 32/11 A298 RMK A01 T03230113  RH  028%=      5-min Rain = 0
KGO1 241905Z 19014KT 32/11 A298 RMK A01 T03220113  RH  028%=      5-min Rain = 0
KGO1 241906Z 20009KT 32/12 A298 RMK A01 T03170115  RH  029%=      5-min Rain = 0
KGO1 241907Z 18013KT 31/11 A298 RMK A01 T03140114  RH  029%=      5-min Rain = 0
KGO1 241908Z 19013KT 32/11 A298 RMK A01 T03160114  RH  029%=      5-min Rain = 0
KGO1 241909Z 17011KT 32/11 A298 RMK A01 T03170112  RH  028%=      5-min Rain = 0
KGO1 241910Z 15014KT 32/11 A298 RMK A01 T03160110  RH  028%=      5-min Rain = 0
KGO1 241911Z 16010KT 32/11 A298 RMK A01 T03170110  RH  028%=      5-min Rain = 0
KGO1 241912Z 17011KT 32/11 A298 RMK A01 T03170107  RH  027%=      5-min Rain = 0
KGO1 241913Z 17008KT 31/11 A298 RMK A01 T03140105  RH  028%=      5-min Rain = 0
KGO1 241914Z 17006KT 31/11 A298 RMK A01 T03140107  RH  028%=      5-min Rain = 0
KGO1 241915Z 16011G16KT 32/10 A298 RMK A01 T03180104  RH  027%=      5-min Rain = 0
KGO1 241916Z 16015KT 32/10 A298 RMK A01 T03190099  RH  026%=      5-min Rain = 0
KGO1 241917Z 16015KT 32/10 A298 RMK A01 T03210099  RH  025%=      5-min Rain = 0
KGO1 241918Z 18011KT 32/09 A298 RMK A01 T03210094  RH  025%=      5-min Rain = 0
KGO1 241919Z 17011KT 32/10 A298 RMK A01 T03190095  RH  025%=      5-min Rain = 0
KGO1 241920Z 16015KT 32/10 A298 RMK A01 T03180099  RH  026%=      5-min Rain = 0
KGO1 241921Z 16017KT 32/10 A298 RMK A01 T03190100  RH  026%=      5-min Rain = 0
KGO1 241922Z 17015KT 32/09 A298 RMK A01 T03200094  RH  025%=      5-min Rain = 0
KGO1 241923Z 18009KT 32/09 A298 RMK A01 T03180088  RH  024%=      5-min Rain = 0
KGO1 241924Z 18007KT 32/09 A298 RMK A01 T03170087  RH  024%=      5-min Rain = 0
KGO1 241925Z 17010KT 32/09 A298 RMK A01 T03200093  RH  025%=      5-min Rain = 0
KGO1 241926Z 17011KT 32/09 A298 RMK A01 T03210093  RH  025%=      5-min Rain = 0
KGO1 241927Z 19013KT 32/09 A298 RMK A01 T03210092  RH  024%=      5-min Rain = 0
KGO1 241928Z 18009KT 32/09 A298 RMK A01 T03210086  RH  023%=      5-min Rain = 0
KGO1 241929Z 16010KT 32/09 A298 RMK A01 T03170089  RH  024%=      5-min Rain = 0
KGO1 241930Z 17009KT 32/09 A298 RMK A01 T03160092  RH  025%=      5-min Rain = 0
KGO1 241931Z 16009KT 32/10 A298 RMK A01 T03190097  RH  025%=      5-min Rain = 0
KGO1 241932Z 17009KT 32/09 A298 RMK A01 T03220093  RH  024%=      5-min Rain = 0
KGO1 241933Z 16010KT 33/09 A298 RMK A01 T03250088  RH  023%=      5-min Rain = 0
KGO1 241934Z 17010KT 32/09 A298 RMK A01 T03230088  RH  023%=      5-min Rain = 0
KGO1 241935Z 19015KT 33/08 A2979 RMK A01 T03260076  RH  021%=      5-min Rain = 0
KGO1 241936Z 18012KT 32/07 A298 RMK A01 T03240066  RH  020%=      5-min Rain = 0
KGO1 241937Z 21011KT 32/07 A2979 RMK A01 T03220070  RH  021%=      5-min Rain = 0
KGO1 241938Z 21010G15KT 32/07 A2979 RMK A01 T03230071  RH  021%=      5-min Rain = 0
KGO1 241939Z 22013KT 32/08 A2979 RMK A01 T03240082  RH  022%=      5-min Rain = 0
KGO1 241940Z 17012G17KT 33/08 A2979 RMK A01 T03250082  RH  022%=      5-min Rain = 0
KGO1 241941Z 16012G18KT 33/07 A2979 RMK A01 T03330074  RH  020%=      5-min Rain = 0
KGO1 241942Z 18016KT 33/08 A2979 RMK A01 T03320078  RH  021%=      5-min Rain = 0
KGO1 241943Z 19016KT 33/08 A2979 RMK A01 T03340079  RH  021%=      5-min Rain = 0
KGO1 241944Z 19012KT 33/08 A2979 RMK A01 T03300079  RH  021%=      5-min Rain = 0
KGO1 241945Z 18013KT 33/08 A2979 RMK A01 T03280079  RH  021%=      5-min Rain = 0
KGO1 241946Z 18015KT 33/08 A2979 RMK A01 T03290079  RH  021%=      5-min Rain = 0
KGO1 241947Z 20017KT 33/08 A2979 RMK A01 T03300084  RH  022%=      5-min Rain = 0
KGO1 241948Z 20010KT 33/08 A2979 RMK A01 T03260082  RH  022%=      5-min Rain = 0
KGO1 241949Z 20013KT 33/07 A2979 RMK A01 T03250067  RH  020%=      5-min Rain = 0
KGO1 241950Z 21010KT 33/07 A2979 RMK A01 T03260068  RH  020%=      5-min Rain = 0
KGO1 241951Z 21013KT 33/07 A2979 RMK A01 T03260074  RH  021%=      5-min Rain = 0
KGO1 241952Z 21008KT 33/08 A2979 RMK A01 T03270076  RH  021%=      5-min Rain = 0
KGO1 241953Z 21010G15KT 33/08 A2979 RMK A01 T03260077  RH  021%=      5-min Rain = 0
KGO1 241954Z 22014KT 33/08 A2979 RMK A01 T03270079  RH  022%=      5-min Rain = 0
KGO1 241955Z 21012KT 33/08 A2979 RMK A01 T03270078  RH  021%=      5-min Rain = 0
KGO1 241956Z 20016KT 33/08 A2979 RMK A01 T03250081  RH  022%=      5-min Rain = 0
KGO1 241957Z 19013KT 32/07 A2979 RMK A01 T03240072  RH  021%=      5-min Rain = 0
KGO1 241958Z 20010KT 32/07 A2979 RMK A01 T03220066  RH  020%=      5-min Rain = 0
KGO1 241959Z 17009G14KT 33/06 A2979 RMK A01 T03250063  RH  019%=      5-min Rain = 0
KGO1 242000Z 19012G17KT 33/07 A2979 RMK A01 T03270066  RH  020%=      5-min Rain = 0
KGO1 242001Z 17011KT 33/07 A2979 RMK A01 T03290067  RH  020%=      5-min Rain = 0
KGO1 242002Z 18012G17KT 33/07 A2978 RMK A01 T03290070  RH  020%=      5-min Rain = 0
KGO1 242003Z 18013KT 33/07 A2978 RMK A01 T03320072  RH  020%=      5-min Rain = 0
KGO1 242004Z 16007KT 33/07 A2979 RMK A01 T03310068  RH  019%=      5-min Rain = 0
KGO1 242005Z 20003KT 33/07 A2978 RMK A01 T03280072  RH  020%=      5-min Rain = 0
KGO1 242006Z 19008G16KT 33/07 A2978 RMK A01 T03280073  RH  021%=      5-min Rain = 0
KGO1 242007Z 21013KT 33/07 A2978 RMK A01 T03310071  RH  020%=      5-min Rain = 0
KGO1 242008Z 22009KT 33/07 A2978 RMK A01 T03300070  RH  020%=      5-min Rain = 0
KGO1 242009Z 22005KT 33/07 A2978 RMK A01 T03270074  RH  021%=      5-min Rain = 0
KGO1 242010Z 17005KT 33/06 A2978 RMK A01 T03290064  RH  019%=      5-min Rain = 0
KGO1 242011Z 22009G14KT 33/07 A2978 RMK A01 T03300068  RH  020%=      5-min Rain = 0
KGO1 242012Z 22011KT 33/06 A2978 RMK A01 T03310060  RH  019%=      5-min Rain = 0
KGO1 242013Z 21009KT 33/06 A2978 RMK A01 T03330063  RH  019%=      5-min Rain = 0
KGO1 242014Z 18014KT 34/06 A2978 RMK A01 T03360058  RH  018%=      5-min Rain = 0
KGO1 242015Z 20014KT 34/05 A2978 RMK A01 T03390050  RH  016%=      5-min Rain = 0
KGO1 242016Z 20012KT 34/05 A2978 RMK A01 T03410045  RH  016%=      5-min Rain = 0
KGO1 242017Z 22007KT 34/04 A2978 RMK A01 T03370044  RH  016%=      5-min Rain = 0
KGO1 242018Z 19008G15KT 33/05 A2978 RMK A01 T03340045  RH  016%=      5-min Rain = 0
KGO1 242019Z 19013KT 33/03 A2978 RMK A01 T03330029  RH  015%=      5-min Rain = 0
KGO1 242020Z 17012KT 33/04 A2978 RMK A01 T03340039  RH  016%=      5-min Rain = 0
KGO1 242021Z 17008KT 33/05 A2978 RMK A01 T03320046  RH  017%=      5-min Rain = 0
KGO1 242022Z 15008KT 33/05 A2978 RMK A01 T03320047  RH  017%=      5-min Rain = 0
KGO1 242023Z 15007KT 33/04 A2978 RMK A01 T03330044  RH  016%=      5-min Rain = 0
KGO1 242024Z 18010KT 33/05 A2978 RMK A01 T03310053  RH  018%=      5-min Rain = 0
KGO1 242025Z 19014KT 33/07 A2978 RMK A01 T03310065  RH  019%=      5-min Rain = 0
KGO1 242026Z 18014KT 34/05 A2978 RMK A01 T03360048  RH  017%=      5-min Rain = 0
KGO1 242027Z 19015KT 34/04 A2977 RMK A01 T03350035  RH  015%=      5-min Rain = 0
KGO1 242028Z 18013KT 33/04 A2977 RMK A01 T03340039  RH  016%=      5-min Rain = 0
KGO1 242029Z 18015KT 34/05 A2977 RMK A01 T03370049  RH  016%=      5-min Rain = 0
KGO1 242030Z 18012KT 34/05 A2977 RMK A01 T03370052  RH  017%=      5-min Rain = 0
KGO1 242031Z 16012KT 34/06 A2977 RMK A01 T03350055  RH  017%=      5-min Rain = 0
KGO1 242032Z 15010KT 33/06 A2977 RMK A01 T03340055  RH  018%=      5-min Rain = 0
KGO1 242033Z 16009KT 34/06 A2977 RMK A01 T03350059  RH  018%=      5-min Rain = 0
KGO1 242034Z 16011KT 34/06 A2977 RMK A01 T03370058  RH  018%=      5-min Rain = 0
KGO1 242035Z 19014KT 34/05 A2977 RMK A01 T03380051  RH  017%=      5-min Rain = 0
KGO1 242036Z 19012KT 34/04 A2977 RMK A01 T03390037  RH  015%=      5-min Rain = 0
KGO1 242037Z 18010KT 33/04 A2977 RMK A01 T03340043  RH  016%=      5-min Rain = 0
KGO1 242038Z 20014G20KT 33/05 A2977 RMK A01 T03340052  RH  017%=      5-min Rain = 0
KGO1 242039Z 20016KT 34/03 A2977 RMK A01 T03380033  RH  015%=      5-min Rain = 0
KGO1 242040Z 20012KT 34/03 A2977 RMK A01 T03380031  RH  015%=      5-min Rain = 0
KGO1 242041Z 20010KT 34/04 A2977 RMK A01 T03350035  RH  015%=      5-min Rain = 0
KGO1 242042Z 19015KT 33/04 A2977 RMK A01 T03340037  RH  015%=      5-min Rain = 0
KGO1 242043Z 21011KT 34/03 A2977 RMK A01 T03360029  RH  014%=      5-min Rain = 0
KGO1 242044Z 19011KT 34/03 A2977 RMK A01 T03370033  RH  015%=      5-min Rain = 0
KGO1 242045Z 19008KT 34/04 A2977 RMK A01 T03360036  RH  015%=      5-min Rain = 0
KGO1 242046Z 22010KT 34/05 A2977 RMK A01 T03360047  RH  016%=      5-min Rain = 0
KGO1 242047Z 21009KT 34/05 A2976 RMK A01 T03360045  RH  016%=      5-min Rain = 0
KGO1 242048Z 20007KT 33/05 A2976 RMK A01 T03310047  RH  017%=      5-min Rain = 0
KGO1 242049Z 21007KT 33/05 A2977 RMK A01 T03320053  RH  018%=      5-min Rain = 0
KGO1 242050Z 21011G16KT 34/05 A2976 RMK A01 T03380054  RH  017%=      5-min Rain = 0
KGO1 242051Z 19010KT 34/05 A2976 RMK A01 T03370048  RH  016%=      5-min Rain = 0
KGO1 242052Z 19009KT 33/04 A2976 RMK A01 T03340044  RH  016%=      5-min Rain = 0
KGO1 242053Z 23007KT 33/04 A2976 RMK A01 T03330044  RH  016%=      5-min Rain = 0
KGO1 242054Z 24010KT 33/05 A2976 RMK A01 T03340047  RH  017%=      5-min Rain = 0
KGO1 242055Z 24010KT 34/05 A2976 RMK A01 T03360046  RH  016%=      5-min Rain = 0
KGO1 242056Z 23011KT 34/04 A2976 RMK A01 T03360043  RH  016%=      5-min Rain = 0
KGO1 242057Z 24010KT 34/04 A2976 RMK A01 T03360044  RH  016%=      5-min Rain = 0
KGO1 242058Z 23009KT 34/05 A2976 RMK A01 T03390046  RH  016%=      5-min Rain = 0
KGO1 242059Z 22008KT 34/05 A2976 RMK A01 T03400046  RH  016%=      5-min Rain = 0
KGO1 242100Z 19009KT 34/05 A2976 RMK A01 T03360050  RH  017%=      5-min Rain = 0
KGO1 242101Z 19013G20KT 34/05 A2976 RMK A01 T03360054  RH  017%=      5-min Rain = 0
KGO1 242102Z 19015KT 34/06 A2976 RMK A01 T03390063  RH  018%=      5-min Rain = 0
KGO1 242103Z 21015KT 34/06 A2976 RMK A01 T03370058  RH  018%=      5-min Rain = 0
KGO1 242104Z 23014KT 33/06 A2975 RMK A01 T03340055  RH  018%=      5-min Rain = 0
KGO1 242105Z 22014KT 33/06 A2975 RMK A01 T03330055  RH  018%=      5-min Rain = 0
KGO1 242106Z 22014KT 33/05 A2975 RMK A01 T03330050  RH  017%=      5-min Rain = 0
KGO1 242107Z 20012KT 33/05 A2975 RMK A01 T03340046  RH  016%=      5-min Rain = 0
KGO1 242108Z 18011KT 34/05 A2975 RMK A01 T03370047  RH  016%=      5-min Rain = 0
KGO1 242109Z 18009KT 34/05 A2975 RMK A01 T03380049  RH  017%=      5-min Rain = 0
KGO1 242110Z 20014KT 34/06 A2975 RMK A01 T03360057  RH  018%=      5-min Rain = 0
KGO1 242111Z 18007KT 34/05 A2975 RMK A01 T03350051  RH  017%=      5-min Rain = 0
KGO1 242112Z 20011KT 33/05 A2975 RMK A01 T03330046  RH  017%=      5-min Rain = 0
KGO1 242113Z 19012KT 33/04 A2975 RMK A01 T03330041  RH  016%=      5-min Rain = 0
KGO1 242114Z 19012KT 33/06 A2975 RMK A01 T03340060  RH  018%=      5-min Rain = 0
KGO1 242115Z 21013KT 34/06 A2975 RMK A01 T03370064  RH  018%=      5-min Rain = 0
KGO1 242116Z 20010KT 34/07 A2975 RMK A01 T03360065  RH  019%=      5-min Rain = 0
KGO1 242117Z 20007KT 34/07 A2975 RMK A01 T03350071  RH  019%=      5-min Rain = 0
KGO1 242118Z 16011KT 34/10 A2975 RMK A01 T03380103  RH  024%=      5-min Rain = 0
KGO1 242119Z 17010KT 33/12 A2975 RMK A01 T03330116  RH  027%=      5-min Rain = 0
KGO1 242120Z 15012KT 33/12 A2974 RMK A01 T03270118  RH  028%=      5-min Rain = 0
KGO1 242121Z 14015KT 33/12 A2974 RMK A01 T03300120  RH  028%=      5-min Rain = 0
KGO1 242122Z 14012KT 33/12 A2974 RMK A01 T03310117  RH  027%=      5-min Rain = 0
KGO1 242123Z 17009KT 33/11 A2974 RMK A01 T03260112  RH  027%=      5-min Rain = 0
KGO1 242124Z 17008KT 32/10 A2974 RMK A01 T03220096  RH  025%=      5-min Rain = 0
KGO1 242125Z 15007KT 32/09 A2974 RMK A01 T03220085  RH  023%=      5-min Rain = 0
KGO1 242126Z 18015KT 32/09 A2974 RMK A01 T03230091  RH  024%=      5-min Rain = 0
KGO1 242127Z 18011KT 33/09 A2974 RMK A01 T03260088  RH  023%=      5-min Rain = 0
KGO1 242128Z 16009KT 33/09 A2974 RMK A01 T03270088  RH  023%=      5-min Rain = 0
KGO1 242129Z 16010KT 33/10 A2974 RMK A01 T03300097  RH  024%=      5-min Rain = 0
KGO1 242130Z 16009KT 34/10 A2974 RMK A01 T03350099  RH  024%=      5-min Rain = 0
KGO1 242131Z 17010KT 33/10 A2974 RMK A01 T03310104  RH  025%=      5-min Rain = 0
KGO1 242132Z 15008KT 33/11 A2974 RMK A01 T03330114  RH  026%=      5-min Rain = 0
KGO1 242133Z 13011KT 34/12 A2974 RMK A01 T03370117  RH  026%=      5-min Rain = 0
KGO1 242134Z 13004KT 34/11 A2973 RMK A01 T03370114  RH  026%=      5-min Rain = 0
KGO1 242135Z 24007G14KT 33/11 A2973 RMK A01 T03320113  RH  026%=      5-min Rain = 0
KGO1 242136Z 22012KT 33/11 A2973 RMK A01 T03290109  RH  026%=      5-min Rain = 0
KGO1 242137Z 18013G19KT 33/10 A2973 RMK A01 T03310096  RH  024%=      5-min Rain = 0
KGO1 242138Z 18019KT 33/07 A2973 RMK A01 T03330072  RH  020%=      5-min Rain = 0
KGO1 242139Z 17015KT 33/07 A2973 RMK A01 T03340074  RH  020%=      5-min Rain = 0
KGO1 242140Z 18012KT 34/07 A2973 RMK A01 T03370074  RH  020%=      5-min Rain = 0
KGO1 242141Z 19011KT 34/08 A2973 RMK A01 T03370078  RH  020%=      5-min Rain = 0
KGO1 242142Z 17009KT 34/08 A2973 RMK A01 T03370083  RH  021%=      5-min Rain = 0
KGO1 242143Z 16013KT 34/09 A2973 RMK A01 T03390092  RH  022%=      5-min Rain = 0
KGO1 242144Z 15013KT 34/10 A2973 RMK A01 T03390100  RH  023%=      5-min Rain = 0
KGO1 242145Z 15016KT 34/09 A2973 RMK A01 T03380093  RH  022%=      5-min Rain = 0
KGO1 242146Z 14012G17KT 34/08 A2973 RMK A01 T03420082  RH  020%=      5-min Rain = 0
KGO1 242147Z 14012KT 34/08 A2973 RMK A01 T03430083  RH  020%=      5-min Rain = 0
KGO1 242148Z 15016KT 34/09 A2972 RMK A01 T03400090  RH  021%=      5-min Rain = 0
KGO1 242149Z 15013KT 34/10 A2972 RMK A01 T03380098  RH  023%=      5-min Rain = 0
KGO1 242150Z 15015KT 34/10 A2972 RMK A01 T03360101  RH  024%=      5-min Rain = 0
KGO1 242151Z 16012G18KT 34/10 A2972 RMK A01 T03360102  RH  024%=      5-min Rain = 0
KGO1 242152Z 17016G21KT 34/11 A2972 RMK A01 T03360107  RH  025%=      5-min Rain = 0
KGO1 242153Z 17015KT 34/11 A2972 RMK A01 T03370109  RH  025%=      5-min Rain = 0
KGO1 242154Z 18014G19KT 33/09 A2972 RMK A01 T03320088  RH  022%=      5-min Rain = 0
KGO1 242155Z 18014KT 33/06 A2972 RMK A01 T03260061  RH  019%=      5-min Rain = 0
KGO1 242156Z 18012KT 32/06 A2972 RMK A01 T03230055  RH  019%=      5-min Rain = 0
KGO1 242157Z 19010KT 32/05 A2972 RMK A01 T03200052  RH  019%=      5-min Rain = 0
KGO1 242158Z 19010KT 32/05 A2972 RMK A01 T03170050  RH  019%=      5-min Rain = 0
KGO1 242159Z 21008KT 32/06 A2972 RMK A01 T03160057  RH  020%=      5-min Rain = 0
KGO1 242200Z 22011G17KT 32/07 A2972 RMK A01 T03160067  RH  021%=      5-min Rain = 0
KGO1 242201Z 18013G19KT 32/07 A2972 RMK A01 T03220069  RH  021%=      5-min Rain = 0
KGO1 242202Z 19009KT 33/07 A2972 RMK A01 T03280073  RH  021%=      5-min Rain = 0
KGO1 242203Z 20007KT 33/08 A2972 RMK A01 T03310078  RH  021%=      5-min Rain = 0
KGO1 242204Z 17005KT 33/08 A2972 RMK A01 T03330082  RH  021%=      5-min Rain = 0
KGO1 242205Z 16006KT 33/08 A2972 RMK A01 T03330081  RH  021%=      5-min Rain = 0
KGO1 242206Z 15006KT 33/09 A2972 RMK A01 T03270094  RH  024%=      5-min Rain = 0
KGO1 242207Z 17009KT 32/10 A2972 RMK A01 T03210101  RH  026%=      5-min Rain = 0
KGO1 242208Z 18014KT 32/10 A2971 RMK A01 T03170096  RH  026%=      5-min Rain = 0
KGO1 242209Z 18015KT 31/09 A2972 RMK A01 T03140088  RH  025%=      5-min Rain = 0
KGO1 242210Z 18013KT 31/09 A2972 RMK A01 T03120092  RH  026%=      5-min Rain = 0
KGO1 242211Z 17014KT 31/10 A2972 RMK A01 T03100097  RH  027%=      5-min Rain = 0
KGO1 242212Z 17013KT 31/10 A2972 RMK A01 T03090097  RH  027%=      5-min Rain = 0
KGO1 242213Z 17014KT 31/10 A2972 RMK A01 T03070099  RH  028%=      5-min Rain = 0
KGO1 242214Z 16018KT 31/10 A2971 RMK A01 T03060099  RH  028%=      5-min Rain = 0
KGO1 242215Z 17015KT 31/10 A2972 RMK A01 T03060097  RH  027%=      5-min Rain = 0
KGO1 242216Z 17014KT 31/10 A2972 RMK A01 T03060096  RH  027%=      5-min Rain = 0
KGO1 242217Z 15013KT 31/10 A2972 RMK A01 T03050096  RH  027%=      5-min Rain = 0
KGO1 242218Z 14008KT 30/10 A2972 RMK A01 T03040098  RH  028%=      5-min Rain = 0
KGO1 242219Z 15011KT 30/10 A2972 RMK A01 T03030099  RH  028%=      5-min Rain = 0
KGO1 242220Z 15012KT 30/10 A2972 RMK A01 T03030099  RH  028%=      5-min Rain = 0
KGO1 242221Z 16015KT 30/10 A2972 RMK A01 T03020102  RH  029%=      5-min Rain = 0
KGO1 242222Z 14014KT 30/10 A2972 RMK A01 T03020103  RH  029%=      5-min Rain = 0
KGO1 242223Z 14014KT 30/10 A2972 RMK A01 T03020101  RH  029%=      5-min Rain = 0
KGO1 242224Z 16013KT 30/10 A2972 RMK A01 T03010101  RH  029%=      5-min Rain = 0
KGO1 242225Z 17012KT 30/09 A2972 RMK A01 T03010093  RH  027%=      5-min Rain = 0
KGO1 242226Z 17013KT 30/09 A2972 RMK A01 T03010092  RH  027%=      5-min Rain = 0
KGO1 242227Z 17011KT 30/09 A2972 RMK A01 T03020092  RH  027%=      5-min Rain = 0
KGO1 242228Z 16009KT 30/09 A2972 RMK A01 T03020092  RH  027%=      5-min Rain = 0
KGO1 242229Z 15012KT 30/09 A2972 RMK A01 T03030091  RH  027%=      5-min Rain = 0
KGO1 242230Z 15011KT 30/09 A2971 RMK A01 T03020090  RH  027%=      5-min Rain = 0
KGO1 242231Z 16009KT 30/09 A2971 RMK A01 T03020090  RH  027%=      5-min Rain = 0
KGO1 242232Z 16008KT 30/09 A2971 RMK A01 T03020091  RH  027%=      5-min Rain = 0
KGO1 242233Z 15009KT 30/09 A2971 RMK A01 T03020091  RH  027%=      5-min Rain = 0
KGO1 242234Z 16010KT 30/09 A2971 RMK A01 T03020091  RH  027%=      5-min Rain = 0
KGO1 242235Z 16009KT 30/09 A2971 RMK A01 T03020094  RH  027%=      5-min Rain = 0
KGO1 242236Z 16010KT 30/10 A2971 RMK A01 T03020097  RH  028%=      5-min Rain = 0
KGO1 242237Z 17008KT 30/10 A2971 RMK A01 T03020100  RH  029%=      5-min Rain = 0
KGO1 242238Z 17010KT 30/10 A2971 RMK A01 T03030102  RH  029%=      5-min Rain = 0
KGO1 242239Z 17012KT 30/10 A2971 RMK A01 T03020101  RH  029%=      5-min Rain = 0
KGO1 242240Z 16010KT 30/10 A2971 RMK A01 T03010101  RH  029%=      5-min Rain = 0
KGO1 242241Z 17009KT 30/10 A2971 RMK A01 T03010102  RH  029%=      5-min Rain = 0
KGO1 242242Z 18008KT 30/10 A2971 RMK A01 T03010102  RH  029%=      5-min Rain = 0
KGO1 242243Z 18009KT 30/10 A2971 RMK A01 T03010102  RH  029%=      5-min Rain = 0
KGO1 242244Z 19008KT 30/10 A2971 RMK A01 T03010101  RH  029%=      5-min Rain = 0
KGO1 242245Z 20009KT 30/10 A2971 RMK A01 T03010102  RH  029%=      5-min Rain = 0
KGO1 242246Z 22016KT 30/10 A2972 RMK A01 T03010101  RH  029%=      5-min Rain = 0
KGO1 242247Z 25015KT 30/07 A2972 RMK A01 T02980066  RH  023%=      5-min Rain = 0
KGO1 242248Z 28013KT 29/06 A2972 RMK A01 T02910058  RH  023%=      5-min Rain = 0
KGO1 242249Z 28011KT 29/05 A2972 RMK A01 T02860053  RH  023%=      5-min Rain = 0
KGO1 242250Z 31012KT 28/06 A2972 RMK A01 T02830058  RH  024%=      5-min Rain = 0
KGO1 242251Z 30012KT 28/06 A2972 RMK A01 T02800062  RH  025%=      5-min Rain = 0
KGO1 242252Z 30013KT 28/06 A2972 RMK A01 T02750064  RH  026%=      5-min Rain = 0
KGO1 242253Z 30014KT 27/06 A2972 RMK A01 T02710064  RH  027%=      5-min Rain = 0
KGO1 242254Z 30014KT 27/07 A2972 RMK A01 T02690066  RH  028%=      5-min Rain = 0
KGO1 242255Z 31014KT 27/07 A2972 RMK A01 T02670067  RH  028%=      5-min Rain = 0
KGO1 242256Z 31014KT 27/07 A2973 RMK A01 T02650068  RH  028%=      5-min Rain = 0
KGO1 242257Z 30016KT 26/07 A2972 RMK A01 T02640068  RH  029%=      5-min Rain = 0
KGO1 242258Z 31016KT 26/07 A2972 RMK A01 T02620067  RH  029%=      5-min Rain = 0
KGO1 242259Z 31015KT 26/07 A2972 RMK A01 T02610068  RH  029%=      5-min Rain = 0
KGO1 242300Z 31014KT 26/07 A2972 RMK A01 T02590070  RH  030%=      5-min Rain = 0
KGO1 242301Z 31017KT 26/07 A2972 RMK A01 T02580069  RH  030%=      5-min Rain = 0
KGO1 242302Z 31015KT 26/07 A2972 RMK A01 T02580065  RH  029%=      5-min Rain = 0
KGO1 242303Z 32017KT 26/06 A2971 RMK A01 T02580059  RH  028%=      5-min Rain = 0
KGO1 242304Z 32017KT 26/06 A2971 RMK A01 T02590060  RH  028%=      5-min Rain = 0
KGO1 242305Z 31014KT 26/06 A2971 RMK A01 T02590062  RH  028%=      5-min Rain = 0
KGO1 242306Z 31015KT 26/06 A2971 RMK A01 T02590061  RH  028%=      5-min Rain = 0
KGO1 242307Z 31016KT 26/06 A2971 RMK A01 T02590059  RH  028%=      5-min Rain = 0
KGO1 242308Z 31017KT 26/05 A2971 RMK A01 T02600053  RH  026%=      5-min Rain = 0
KGO1 242309Z 29015KT 26/06 A2971 RMK A01 T02610058  RH  027%=      5-min Rain = 0
KGO1 242310Z 29013KT 26/07 A297 RMK A01 T02600070  RH  030%=      5-min Rain = 0
KGO1 242311Z 29014G22KT 26/07 A297 RMK A01 T02570068  RH  030%=      5-min Rain = 0
KGO1 242312Z 29017KT 26/06 A2969 RMK A01 T02560061  RH  029%=      5-min Rain = 0
KGO1 242313Z 29015KT 26/07 A2969 RMK A01 T02570069  RH  030%=      5-min Rain = 0
KGO1 242314Z 30018KT 25/09 A2968 RMK A01 T02530092  RH  036%=      5-min Rain = 0
KGO1 242315Z 30015KT 24/10 A2967 RMK A01 T02420102  RH  041%=      5-min Rain = 0
KGO1 242316Z 30014KT 23/11 A2967 RMK A01 T02330111  RH  046%=      5-min Rain = 0
KGO1 242317Z 30013KT 23/11 A2967 RMK A01 T02270108  RH  047%=      5-min Rain = 0
KGO1 242318Z 31011KT 23/11 A2967 RMK A01 T02250106  RH  047%=      5-min Rain = 0
KGO1 242319Z 31008KT 22/11 A2967 RMK A01 T02240105  RH  047%=      5-min Rain = 0
KGO1 242320Z 28008KT 22/10 A2968 RMK A01 T02240104  RH  047%=      5-min Rain = 0
KGO1 242321Z 28009KT 23/09 A2968 RMK A01 T02260085  RH  040%=      5-min Rain = 0
KGO1 242322Z 30006KT 23/09 A2968 RMK A01 T02320085  RH  039%=      5-min Rain = 0
KGO1 242323Z 34004KT 24/10 A2968 RMK A01 T02350096  RH  041%=      5-min Rain = 0
KGO1 242324Z 00004KT 23/10 A2969 RMK A01 T02330101  RH  043%=      5-min Rain = 0
KGO1 242325Z 02006KT 23/11 A2969 RMK A01 T02300109  RH  046%=      5-min Rain = 0
KGO1 242326Z 03005KT 22/11 A2969 RMK A01 T02240111  RH  049%=      5-min Rain = 0
KGO1 242327Z 05006KT 22/11 A2969 RMK A01 T02200113  RH  051%=      5-min Rain = 0
KGO1 242328Z 06007KT 22/12 A2968 RMK A01 T02180117  RH  053%=      5-min Rain = 0
KGO1 242329Z 08009KT 21/12 A2969 RMK A01 T02140118  RH  054%=      5-min Rain = 0
KGO1 242330Z 09008KT 21/12 A2969 RMK A01 T02120118  RH  055%=      5-min Rain = 0
KGO1 242331Z 08010KT 21/11 A2969 RMK A01 T02120113  RH  053%=      5-min Rain = 0
KGO1 242332Z 09014KT 21/12 A2969 RMK A01 T02140117  RH  054%=      5-min Rain = 0
KGO1 242333Z 09017KT 21/12 A2969 RMK A01 T02120120  RH  056%=      5-min Rain = 0
KGO1 242334Z 08016KT 21/12 A2969 RMK A01 T02090120  RH  057%=      5-min Rain = 0
KGO1 242335Z 09015KT 21/12 A297 RMK A01 T02060116  RH  056%=      5-min Rain = 0
KGO1 242336Z 07013KT 20/12 A297 RMK A01 T02030121  RH  059%=      5-min Rain = 0.01
KGO1 242337Z 07017KT 20/12 A297 RMK A01 T01980116  RH  059%=      5-min Rain = 0
KGO1 242338Z 07012KT 19/11 A297 RMK A01 T01930113  RH  060%=      5-min Rain = 0
KGO1 242339Z 07012KT 19/11 A297 RMK A01 T01890109  RH  060%=      5-min Rain = 0
KGO1 242340Z 08010KT 19/11 A297 RMK A01 T01860109  RH  061%=      5-min Rain = 0
KGO1 242341Z 09009KT 19/11 A297 RMK A01 T01850107  RH  060%=      5-min Rain = 0
KGO1 242342Z 08007KT 18/11 A297 RMK A01 T01840111  RH  062%=      5-min Rain = 0
KGO1 242343Z 09007KT 18/12 A2971 RMK A01 T01830115  RH  065%=      5-min Rain = 0
KGO1 242344Z 09008KT 18/11 A2971 RMK A01 T01810113  RH  064%=      5-min Rain = 0
KGO1 242345Z 09008KT 18/10 A2971 RMK A01 T01830099  RH  058%=      5-min Rain = 0.02
KGO1 242346Z 09009KT 19/11 A2971 RMK A01 T01850106  RH  060%=      5-min Rain = 0.01
KGO1 242347Z 05014G19KT 18/11 A297 RMK A01 T01830107  RH  061%=      5-min Rain = 0
KGO1 242348Z 04013G18KT 18/11 A2969 RMK A01 T01820109  RH  062%=      5-min Rain = 0.01
KGO1 242349Z 04013G18KT 18/11 A2969 RMK A01 T01790113  RH  065%=      5-min Rain = 0
KGO1 242350Z 04016KT 18/11 A2969 RMK A01 T01760113  RH  066%=      5-min Rain = 0
KGO1 242351Z 02016KT 17/11 A2968 RMK A01 T01740109  RH  065%=      5-min Rain = 0.01
KGO1 242352Z 02014KT 17/11 A2968 RMK A01 T01740109  RH  065%=      5-min Rain = 0
KGO1 242353Z 02012KT 17/11 A2968 RMK A01 T01740109  RH  066%=      5-min Rain = 0
KGO1 242354Z 03009KT 17/11 A2968 RMK A01 T01740107  RH  065%=      5-min Rain = 0
KGO1 242355Z 04010KT 18/10 A2969 RMK A01 T01760102  RH  062%=      5-min Rain = 0
KGO1 242356Z 06007KT 18/10 A297 RMK A01 T01810101  RH  060%=      5-min Rain = 0.01
KGO1 242357Z 08010KT 19/10 A2971 RMK A01 T01850098  RH  057%=      5-min Rain = 0.01
KGO1 242358Z 09011KT 19/10 A2972 RMK A01 T01890096  RH  055%=      5-min Rain = 0.01
KGO1 242359Z 08012KT 19/10 A2973 RMK A01 T01910104  RH  057%=      5-min Rain = 0.02
KGO1 250000Z 12016G24KT 19/10 A2973 RMK A01 T01910102  RH  056%=      5-min Rain = 0.01
KGO1 250001Z 15019KT 20/11 A2974 RMK A01 T01950113  RH  059%=      5-min Rain = 0.02
KGO1 250002Z 15019KT 20/12 A2974 RMK A01 T01960120  RH  062%=      5-min Rain = 0.01
KGO1 250003Z 14019KT 20/12 A2974 RMK A01 T01970121  RH  062%=      5-min Rain = 0.01
KGO1 250004Z 13017KT 20/13 A2975 RMK A01 T01950127  RH  064%=      5-min Rain = 0.01
KGO1 250005Z 14025G30KT 19/13 A2976 RMK A01 T01880125  RH  067%=      5-min Rain = 0.01
KGO1 250006Z 14027KT 18/12 A2976 RMK A01 T01790119  RH  068%=      5-min Rain = 0.02
KGO1 250007Z 14021KT 17/12 A2976 RMK A01 T01690117  RH  072%=      5-min Rain = 0.02
KGO1 250008Z 13018KT 16/11 A2977 RMK A01 T01630114  RH  072%=      5-min Rain = 0.02
KGO1 250009Z 13019KT 16/11 A2976 RMK A01 T01590114  RH  074%=      5-min Rain = 0.02
KGO1 250010Z 12016KT 16/12 A2977 RMK A01 T01550116  RH  077%=      5-min Rain = 0.01
KGO1 250011Z 13016G21KT 15/12 A2977 RMK A01 T01520118  RH  080%=      5-min Rain = 0.01
KGO1 250012Z 13013KT 15/12 A2977 RMK A01 T01480118  RH  082%=      5-min Rain = 0.01
KGO1 250013Z 12013KT 15/12 A2977 RMK A01 T01470120  RH  084%=      5-min Rain = 0
KGO1 250014Z 12012KT 15/12 A2977 RMK A01 T01460120  RH  084%=      5-min Rain = 0.01
KGO1 250015Z 11011KT 15/12 A2976 RMK A01 T01460121  RH  085%=      5-min Rain = 0
KGO1 250016Z 11010KT 15/12 A2976 RMK A01 T01460121  RH  085%=      5-min Rain = 0.01
KGO1 250017Z 11007KT 15/12 A2976 RMK A01 T01470119  RH  083%=      5-min Rain = 0
KGO1 250018Z 09005KT 15/12 A2975 RMK A01 T01490119  RH  082%=      5-min Rain = 0
KGO1 250019Z 07005KT 15/12 A2974 RMK A01 T01520115  RH  078%=      5-min Rain = 0.01
KGO1 250020Z 06005KT 15/12 A2973 RMK A01 T01540118  RH  079%=      5-min Rain = 0
KGO1 250021Z 03007KT 15/12 A2972 RMK A01 T01540121  RH  080%=      5-min Rain = 0
KGO1 250022Z 02010KT 16/12 A2971 RMK A01 T01550119  RH  079%=      5-min Rain = 0
KGO1 250023Z 01009KT 16/12 A297 RMK A01 T01560119  RH  079%=      5-min Rain = 0.01
KGO1 250024Z 01008KT 16/12 A297 RMK A01 T01580117  RH  077%=      5-min Rain = 0
KGO1 250025Z 01006KT 16/12 A297 RMK A01 T01600116  RH  075%=      5-min Rain = 0
KGO1 250026Z 01005KT 16/12 A297 RMK A01 T01630116  RH  074%=      5-min Rain = 0
KGO1 250027Z 01004KT 16/12 A2971 RMK A01 T01640120  RH  075%=      5-min Rain = 0
KGO1 250028Z 23002KT 16/11 A2971 RMK A01 T01640114  RH  072%=      5-min Rain = 0
KGO1 250029Z 27003KT 17/11 A2971 RMK A01 T01660105  RH  067%=      5-min Rain = 0
KGO1 250030Z 27005KT 17/10 A2971 RMK A01 T01720100  RH  063%=      5-min Rain = 0
KGO1 250031Z 28008KT 18/11 A2971 RMK A01 T01770105  RH  063%=      5-min Rain = 0
KGO1 250032Z 30010KT 18/11 A2971 RMK A01 T01810105  RH  061%=      5-min Rain = 0
KGO1 250033Z 31011KT 19/11 A2971 RMK A01 T01850111  RH  062%=      5-min Rain = 0
KGO1 250034Z 32012KT 19/12 A2971 RMK A01 T01850118  RH  065%=      5-min Rain = 0
KGO1 250035Z 33014KT 18/12 A2971 RMK A01 T01830115  RH  064%=      5-min Rain = 0
KGO1 250036Z 33011KT 18/11 A2971 RMK A01 T01830109  RH  062%=      5-min Rain = 0
KGO1 250037Z 34010KT 18/11 A2971 RMK A01 T01830111  RH  063%=      5-min Rain = 0
KGO1 250038Z 35010KT 18/12 A2971 RMK A01 T01830117  RH  065%=      5-min Rain = 0
KGO1 250039Z 35009KT 18/12 A2971 RMK A01 T01810116  RH  066%=      5-min Rain = 0
KGO1 250040Z 00009KT 18/12 A2971 RMK A01 T01790118  RH  067%=      5-min Rain = 0
KGO1 250041Z 01008KT 18/11 A2971 RMK A01 T01790114  RH  066%=      5-min Rain = 0
KGO1 250042Z 02008KT 18/12 A2972 RMK A01 T01790117  RH  067%=      5-min Rain = 0
KGO1 250043Z 03007KT 18/11 A2972 RMK A01 T01790114  RH  066%=      5-min Rain = 0
KGO1 250044Z 06006KT 18/11 A2972 RMK A01 T01790114  RH  066%=      5-min Rain = 0
KGO1 250045Z 11008G13KT 18/12 A2973 RMK A01 T01790122  RH  069%=      5-min Rain = 0
KGO1 250046Z 12015KT 18/13 A2974 RMK A01 T01760130  RH  074%=      5-min Rain = 0
KGO1 250047Z 11014KT 17/12 A2974 RMK A01 T01700118  RH  071%=      5-min Rain = 0
KGO1 250048Z 12012KT 16/12 A2974 RMK A01 T01610116  RH  075%=      5-min Rain = 0
KGO1 250049Z 12010KT 16/12 A2974 RMK A01 T01550118  RH  078%=      5-min Rain = 0
KGO1 250050Z 13009KT 15/12 A2974 RMK A01 T01520117  RH  079%=      5-min Rain = 0
KGO1 250051Z 14007KT 15/12 A2973 RMK A01 T01500117  RH  081%=      5-min Rain = 0
KGO1 250052Z 14006KT 15/12 A2973 RMK A01 T01490118  RH  081%=      5-min Rain = 0
KGO1 250053Z 12005KT 15/12 A2973 RMK A01 T01490118  RH  082%=      5-min Rain = 0
KGO1 250054Z 11006KT 15/12 A2973 RMK A01 T01490116  RH  080%=      5-min Rain = 0
KGO1 250055Z 10005KT 15/12 A2973 RMK A01 T01520118  RH  080%=      5-min Rain = 0
KGO1 250056Z 11008KT 15/12 A2973 RMK A01 T01530115  RH  078%=      5-min Rain = 0
KGO1 250057Z 10007KT 16/12 A2973 RMK A01 T01580115  RH  076%=      5-min Rain = 0
KGO1 250058Z 10010KT 16/12 A2973 RMK A01 T01610118  RH  075%=      5-min Rain = 0
KGO1 250059Z 11013KT 16/12 A2973 RMK A01 T01630115  RH  073%=      5-min Rain = 0
KGO1 250100Z 11013KT 17/11 A2973 RMK A01 T01660111  RH  070%=      5-min Rain = 0
KGO1 250101Z 11013KT 17/11 A2973 RMK A01 T01680106  RH  067%=      5-min Rain = 0
KGO1 250102Z 11012KT 17/11 A2973 RMK A01 T01690110  RH  068%=      5-min Rain = 0
KGO1 250103Z 11011KT 17/11 A2973 RMK A01 T01670111  RH  069%=      5-min Rain = 0
KGO1 250104Z 10010KT 17/11 A2974 RMK A01 T01650109  RH  069%=      5-min Rain = 0
KGO1 250105Z 08009KT 17/11 A2973 RMK A01 T01660106  RH  068%=      5-min Rain = 0
KGO1 250106Z 08010KT 17/11 A2973 RMK A01 T01670106  RH  067%=      5-min Rain = 0
KGO1 250107Z 08012KT 17/11 A2972 RMK A01 T01680105  RH  066%=      5-min Rain = 0
KGO1 250108Z 08012KT 17/11 A2971 RMK A01 T01680106  RH  067%=      5-min Rain = 0
KGO1 250109Z 08013KT 17/11 A2971 RMK A01 T01680109  RH  068%=      5-min Rain = 0
KGO1 250110Z 09013KT 17/11 A297 RMK A01 T01680111  RH  069%=      5-min Rain = 0
KGO1 250111Z 09011KT 17/11 A297 RMK A01 T01670111  RH  069%=      5-min Rain = 0
KGO1 250112Z 09012KT 17/11 A297 RMK A01 T01670109  RH  069%=      5-min Rain = 0
KGO1 250113Z 09010KT 17/11 A297 RMK A01 T01670109  RH  069%=      5-min Rain = 0
KGO1 250114Z 09007KT 17/10 A297 RMK A01 T01670104  RH  066%=      5-min Rain = 0
KGO1 250115Z 12010KT 17/09 A297 RMK A01 T01680094  RH  062%=      5-min Rain = 0
KGO1 250116Z 10008KT 17/10 A297 RMK A01 T01740096  RH  060%=      5-min Rain = 0
KGO1 250117Z 09009KT 18/10 A297 RMK A01 T01760100  RH  061%=      5-min Rain = 0
KGO1 250118Z 09013KT 18/10 A2969 RMK A01 T01760101  RH  061%=      5-min Rain = 0
KGO1 250119Z 09014KT 18/10 A2968 RMK A01 T01760101  RH  062%=      5-min Rain = 0
KGO1 250120Z 09014KT 18/10 A2968 RMK A01 T01750104  RH  063%=      5-min Rain = 0
KGO1 250121Z 09015KT 18/10 A2967 RMK A01 T01750103  RH  063%=      5-min Rain = 0
KGO1 250122Z 09014KT 18/10 A2966 RMK A01 T01750101  RH  062%=      5-min Rain = 0
KGO1 250123Z 09014KT 18/10 A2966 RMK A01 T01760099  RH  060%=      5-min Rain = 0
KGO1 250124Z 08012KT 18/10 A2966 RMK A01 T01780098  RH  059%=      5-min Rain = 0
KGO1 250125Z 09013KT 18/10 A2966 RMK A01 T01790100  RH  060%=      5-min Rain = 0
KGO1 250126Z 09011KT 18/10 A2966 RMK A01 T01770101  RH  061%=      5-min Rain = 0
KGO1 250127Z 09013KT 18/10 A2965 RMK A01 T01760097  RH  060%=      5-min Rain = 0
KGO1 250128Z 09014KT 18/09 A2965 RMK A01 T01760093  RH  058%=      5-min Rain = 0
KGO1 250129Z 09012KT 18/10 A2965 RMK A01 T01770100  RH  061%=      5-min Rain = 0
KGO1 250130Z 09012KT 18/10 A2965 RMK A01 T01750099  RH  061%=      5-min Rain = 0
KGO1 250131Z 09010KT 18/10 A2966 RMK A01 T01750101  RH  062%=      5-min Rain = 0
KGO1 250132Z 09009KT 18/10 A2966 RMK A01 T01750103  RH  063%=      5-min Rain = 0
KGO1 250133Z 10011KT 17/10 A2966 RMK A01 T01730099  RH  061%=      5-min Rain = 0
KGO1 250134Z 10011KT 18/10 A2966 RMK A01 T01750097  RH  060%=      5-min Rain = 0
KGO1 250135Z 10009KT 18/10 A2967 RMK A01 T01760102  RH  062%=      5-min Rain = 0
KGO1 250136Z 10012KT 18/10 A2967 RMK A01 T01750103  RH  063%=      5-min Rain = 0
KGO1 250137Z 10010KT 17/10 A2968 RMK A01 T01740104  RH  064%=      5-min Rain = 0
KGO1 250138Z 09010KT 17/11 A2968 RMK A01 T01740105  RH  064%=      5-min Rain = 0
KGO1 250139Z 09010KT 17/11 A2968 RMK A01 T01740105  RH  064%=      5-min Rain = 0
KGO1 250140Z 09009KT 18/10 A2968 RMK A01 T01750101  RH  062%=      5-min Rain = 0
KGO1 250141Z 09006KT 18/10 A2968 RMK A01 T01770101  RH  061%=      5-min Rain = 0
KGO1 250142Z 09005KT 18/11 A2968 RMK A01 T01780105  RH  062%=      5-min Rain = 0
KGO1 250143Z 08006KT 18/10 A2969 RMK A01 T01770104  RH  062%=      5-min Rain = 0
KGO1 250144Z 09003KT 18/10 A2969 RMK A01 T01770102  RH  061%=      5-min Rain = 0
KGO1 250145Z 09002KT 18/10 A2969 RMK A01 T01780102  RH  061%=      5-min Rain = 0
KGO1 250146Z 08002KT 18/10 A2969 RMK A01 T01780101  RH  061%=      5-min Rain = 0
KGO1 250147Z 33001KT 18/10 A2969 RMK A01 T01780104  RH  062%=      5-min Rain = 0
KGO1 250148Z 15000KT 18/10 A2969 RMK A01 T01780097  RH  059%=      5-min Rain = 0
KGO1 250149Z 17001KT 18/10 A2969 RMK A01 T01780098  RH  060%=      5-min Rain = 0
KGO1 250150Z 16003KT 18/10 A2969 RMK A01 T01780102  RH  061%=      5-min Rain = 0
KGO1 250151Z 15004KT 18/10 A297 RMK A01 T01780102  RH  061%=      5-min Rain = 0
KGO1 250152Z 15006KT 18/11 A297 RMK A01 T01780106  RH  063%=      5-min Rain = 0
KGO1 250153Z 14008KT 18/11 A2971 RMK A01 T01780110  RH  065%=      5-min Rain = 0
KGO1 250154Z 15009KT 18/11 A2972 RMK A01 T01770113  RH  066%=      5-min Rain = 0
KGO1 250155Z 15007KT 17/12 A2972 RMK A01 T01740117  RH  069%=      5-min Rain = 0
KGO1 250156Z 14009KT 17/11 A2972 RMK A01 T01720114  RH  069%=      5-min Rain = 0
KGO1 250157Z 13010KT 17/11 A2973 RMK A01 T01710114  RH  069%=      5-min Rain = 0
KGO1 250158Z 13013G20KT 17/12 A2973 RMK A01 T01710116  RH  070%=      5-min Rain = 0
KGO1 250159Z 13016G22KT 17/11 A2973 RMK A01 T01690111  RH  069%=      5-min Rain = 0
KGO1 250200Z 13017G22KT 17/11 A2974 RMK A01 T01690109  RH  068%=      5-min Rain = 0
KGO1 250201Z 14018KT 17/11 A2974 RMK A01 T01680112  RH  069%=      5-min Rain = 0
KGO1 250202Z 13022KT 17/11 A2974 RMK A01 T01670111  RH  069%=      5-min Rain = 0
KGO1 250203Z 13020KT 17/11 A2974 RMK A01 T01650111  RH  070%=      5-min Rain = 0
KGO1 250204Z 13019KT 16/11 A2974 RMK A01 T01640112  RH  071%=      5-min Rain = 0
KGO1 250205Z 14017KT 16/11 A2974 RMK A01 T01630114  RH  073%=      5-min Rain = 0
KGO1 250206Z 14015KT 16/12 A2974 RMK A01 T01620116  RH  074%=      5-min Rain = 0
KGO1 250207Z 14015KT 16/12 A2974 RMK A01 T01610116  RH  075%=      5-min Rain = 0
KGO1 250208Z 15015G20KT 16/12 A2974 RMK A01 T01600115  RH  075%=      5-min Rain = 0
KGO1 250209Z 15017G22KT 16/12 A2974 RMK A01 T01600116  RH  075%=      5-min Rain = 0
KGO1 250210Z 14018KT 16/12 A2974 RMK A01 T01600117  RH  076%=      5-min Rain = 0
KGO1 250211Z 15017KT 16/12 A2975 RMK A01 T01590120  RH  078%=      5-min Rain = 0
KGO1 250212Z 14018KT 16/12 A2975 RMK A01 T01580121  RH  079%=      5-min Rain = 0
KGO1 250213Z 14017KT 16/12 A2976 RMK A01 T01570122  RH  080%=      5-min Rain = 0
KGO1 250214Z 14015KT 16/12 A2976 RMK A01 T01560123  RH  081%=      5-min Rain = 0
KGO1 250215Z 14014KT 16/13 A2977 RMK A01 T01550125  RH  083%=      5-min Rain = 0
KGO1 250216Z 14016KT 15/13 A2977 RMK A01 T01540125  RH  083%=      5-min Rain = 0
KGO1 250217Z 14013KT 15/13 A2977 RMK A01 T01540126  RH  084%=      5-min Rain = 0
KGO1 250218Z 14012KT 15/13 A2977 RMK A01 T01520127  RH  085%=      5-min Rain = 0
KGO1 250219Z 14011KT 15/13 A2977 RMK A01 T01510127  RH  085%=      5-min Rain = 0
KGO1 250220Z 13011KT 15/13 A2976 RMK A01 T01500126  RH  085%=      5-min Rain = 0
KGO1 250221Z 13012KT 15/13 A2976 RMK A01 T01490125  RH  085%=      5-min Rain = 0
KGO1 250222Z 14013KT 15/13 A2976 RMK A01 T01490126  RH  086%=      5-min Rain = 0
KGO1 250223Z 14012KT 15/13 A2976 RMK A01 T01480127  RH  087%=      5-min Rain = 0
KGO1 250224Z 14012KT 15/13 A2975 RMK A01 T01480127  RH  087%=      5-min Rain = 0
KGO1 250225Z 14011KT 15/13 A2975 RMK A01 T01470127  RH  087%=      5-min Rain = 0
KGO1 250226Z 15010KT 15/13 A2975 RMK A01 T01470127  RH  088%=      5-min Rain = 0
KGO1 250227Z 14011KT 15/13 A2975 RMK A01 T01470128  RH  088%=      5-min Rain = 0
KGO1 250228Z 15010KT 15/13 A2975 RMK A01 T01470128  RH  088%=      5-min Rain = 0
KGO1 250229Z 16011KT 15/13 A2976 RMK A01 T01470130  RH  089%=      5-min Rain = 0
KGO1 250230Z 16010KT 15/13 A2976 RMK A01 T01470130  RH  089%=      5-min Rain = 0
KGO1 250231Z 16011KT 15/13 A2976 RMK A01 T01470131  RH  090%=      5-min Rain = 0
KGO1 250232Z 16011KT 15/13 A2977 RMK A01 T01470131  RH  090%=      5-min Rain = 0
KGO1 250233Z 16011KT 15/13 A2976 RMK A01 T01480131  RH  090%=      5-min Rain = 0
KGO1 250234Z 15009KT 15/13 A2976 RMK A01 T01480131  RH  090%=      5-min Rain = 0
KGO1 250235Z 15010KT 15/13 A2976 RMK A01 T01480131  RH  090%=      5-min Rain = 0
KGO1 250236Z 15010KT 15/13 A2976 RMK A01 T01470131  RH  090%=      5-min Rain = 0
KGO1 250237Z 16009KT 15/13 A2976 RMK A01 T01470131  RH  090%=      5-min Rain = 0
KGO1 250238Z 16009KT 15/13 A2975 RMK A01 T01470131  RH  090%=      5-min Rain = 0
KGO1 250239Z 17007KT 15/13 A2975 RMK A01 T01470132  RH  091%=      5-min Rain = 0
KGO1 250240Z 17006KT 15/13 A2975 RMK A01 T01470133  RH  091%=      5-min Rain = 0
KGO1 250241Z 17006KT 15/13 A2975 RMK A01 T01470133  RH  091%=      5-min Rain = 0
KGO1 250242Z 18006KT 15/13 A2974 RMK A01 T01470132  RH  091%=      5-min Rain = 0
KGO1 250243Z 17005KT 15/13 A2974 RMK A01 T01470132  RH  091%=      5-min Rain = 0
KGO1 250244Z 17006KT 15/13 A2974 RMK A01 T01470133  RH  091%=      5-min Rain = 0
KGO1 250245Z 15006KT 15/13 A2974 RMK A01 T01470133  RH  091%=      5-min Rain = 0
KGO1 250246Z 14006KT 15/13 A2974 RMK A01 T01470133  RH  092%=      5-min Rain = 0
KGO1 250247Z 14008KT 15/13 A2974 RMK A01 T01470134  RH  092%=      5-min Rain = 0
KGO1 250248Z 14009KT 15/14 A2974 RMK A01 T01470135  RH  093%=      5-min Rain = 0
KGO1 250249Z 16006KT 15/13 A2974 RMK A01 T01470134  RH  092%=      5-min Rain = 0
KGO1 250250Z 15005KT 15/14 A2974 RMK A01 T01470135  RH  092%=      5-min Rain = 0
KGO1 250251Z 13005KT 15/13 A2974 RMK A01 T01460134  RH  092%=      5-min Rain = 0
KGO1 250252Z 11007KT 15/14 A2974 RMK A01 T01460135  RH  093%=      5-min Rain = 0
KGO1 250253Z 09008KT 15/14 A2974 RMK A01 T01470135  RH  093%=      5-min Rain = 0
KGO1 250254Z 09010KT 15/14 A2974 RMK A01 T01470135  RH  093%=      5-min Rain = 0
KGO1 250255Z 10011KT 15/14 A2974 RMK A01 T01470135  RH  092%=      5-min Rain = 0
KGO1 250256Z 10012KT 15/13 A2975 RMK A01 T01480134  RH  092%=      5-min Rain = 0
KGO1 250257Z 10012KT 15/13 A2975 RMK A01 T01480134  RH  091%=      5-min Rain = 0
KGO1 250258Z 11013KT 15/13 A2975 RMK A01 T01480134  RH  091%=      5-min Rain = 0
KGO1 250259Z 11013KT 15/13 A2976 RMK A01 T01480133  RH  091%=      5-min Rain = 0
KGO1 250300Z 10012KT 15/13 A2976 RMK A01 T01480133  RH  091%=      5-min Rain = 0
KGO1 250301Z 10013KT 15/13 A2976 RMK A01 T01480132  RH  090%=      5-min Rain = 0
KGO1 250302Z 10011KT 15/13 A2977 RMK A01 T01480132  RH  090%=      5-min Rain = 0
KGO1 250303Z 10010KT 15/13 A2977 RMK A01 T01480130  RH  089%=      5-min Rain = 0
KGO1 250304Z 12013KT 15/13 A2977 RMK A01 T01500127  RH  086%=      5-min Rain = 0
KGO1 250305Z 12013KT 15/13 A2977 RMK A01 T01530127  RH  085%=      5-min Rain = 0
KGO1 250306Z 12012KT 16/13 A2977 RMK A01 T01550128  RH  084%=      5-min Rain = 0
KGO1 250307Z 12011KT 16/13 A2977 RMK A01 T01570127  RH  083%=      5-min Rain = 0
KGO1 250308Z 11010KT 16/13 A2977 RMK A01 T01580128  RH  082%=      5-min Rain = 0
KGO1 250309Z 11010KT 16/13 A2977 RMK A01 T01580128  RH  082%=      5-min Rain = 0
KGO1 250310Z 11007KT 16/13 A2977 RMK A01 T01580127  RH  082%=      5-min Rain = 0
KGO1 250311Z 11005KT 16/13 A2978 RMK A01 T01580128  RH  082%=      5-min Rain = 0
KGO1 250312Z 13005KT 16/13 A2978 RMK A01 T01570127  RH  082%=      5-min Rain = 0
KGO1 250313Z 14006KT 16/13 A2977 RMK A01 T01570127  RH  082%=      5-min Rain = 0
KGO1 250314Z 14005KT 16/13 A2977 RMK A01 T01580126  RH  081%=      5-min Rain = 0
KGO1 250315Z 14009KT 16/13 A2977 RMK A01 T01600125  RH  080%=      5-min Rain = 0
KGO1 250316Z 13011KT 16/13 A2977 RMK A01 T01610126  RH  079%=      5-min Rain = 0
KGO1 250317Z 12014KT 16/13 A2976 RMK A01 T01620127  RH  080%=      5-min Rain = 0
KGO1 250318Z 12019KT 16/13 A2976 RMK A01 T01640125  RH  078%=      5-min Rain = 0
KGO1 250319Z 12021KT 17/12 A2976 RMK A01 T01680122  RH  074%=      5-min Rain = 0
KGO1 250320Z 12020KT 17/12 A2976 RMK A01 T01720121  RH  072%=      5-min Rain = 0
KGO1 250321Z 11016KT 17/13 A2976 RMK A01 T01730125  RH  073%=      5-min Rain = 0
KGO1 250322Z 11017KT 17/13 A2976 RMK A01 T01690127  RH  076%=      5-min Rain = 0
KGO1 250323Z 11017KT 16/13 A2976 RMK A01 T01640126  RH  078%=      5-min Rain = 0
KGO1 250324Z 11016KT 16/13 A2976 RMK A01 T01620125  RH  079%=      5-min Rain = 0
KGO1 250325Z 10017G22KT 16/13 A2976 RMK A01 T01610126  RH  080%=      5-min Rain = 0
KGO1 250326Z 10021KT 16/13 A2976 RMK A01 T01600125  RH  080%=      5-min Rain = 0
KGO1 250327Z 10022KT 16/12 A2975 RMK A01 T01600124  RH  079%=      5-min Rain = 0
KGO1 250328Z 10023G28KT 16/12 A2975 RMK A01 T01620124  RH  078%=      5-min Rain = 0
KGO1 250329Z 09024G29KT 16/12 A2975 RMK A01 T01630124  RH  078%=      5-min Rain = 0
KGO1 250330Z 09025G32KT 16/12 A2974 RMK A01 T01610122  RH  077%=      5-min Rain = 0
KGO1 250331Z 09024G29KT 16/12 A2974 RMK A01 T01580122  RH  079%=      5-min Rain = 0
KGO1 250332Z 09026G34KT 16/12 A2974 RMK A01 T01550123  RH  081%=      5-min Rain = 0
KGO1 250333Z 09024G30KT 15/12 A2973 RMK A01 T01540122  RH  081%=      5-min Rain = 0
KGO1 250334Z 09024KT 15/12 A2973 RMK A01 T01540122  RH  082%=      5-min Rain = 0
KGO1 250335Z 10023KT 15/12 A2973 RMK A01 T01540122  RH  081%=      5-min Rain = 0
KGO1 250336Z 10021G26KT 15/12 A2972 RMK A01 T01540122  RH  081%=      5-min Rain = 0
KGO1 250337Z 11021G28KT 15/12 A2972 RMK A01 T01540121  RH  081%=      5-min Rain = 0
KGO1 250338Z 10022G30KT 16/12 A2971 RMK A01 T01550120  RH  079%=      5-min Rain = 0
KGO1 250339Z 10023G30KT 16/12 A2971 RMK A01 T01560120  RH  079%=      5-min Rain = 0
KGO1 250340Z 09023G28KT 16/12 A2972 RMK A01 T01560122  RH  080%=      5-min Rain = 0
KGO1 250341Z 09024KT 16/12 A2972 RMK A01 T01560121  RH  080%=      5-min Rain = 0
KGO1 250342Z 09023KT 16/12 A2972 RMK A01 T01560120  RH  079%=      5-min Rain = 0
KGO1 250343Z 09021KT 16/12 A2972 RMK A01 T01560119  RH  078%=      5-min Rain = 0
KGO1 250344Z 09020KT 16/12 A2973 RMK A01 T01570119  RH  078%=      5-min Rain = 0
KGO1 250345Z 09023KT 16/12 A2973 RMK A01 T01570118  RH  077%=      5-min Rain = 0
KGO1 250346Z 09020G26KT 16/12 A2974 RMK A01 T01580118  RH  077%=      5-min Rain = 0
KGO1 250347Z 09015KT 16/12 A2974 RMK A01 T01580118  RH  077%=      5-min Rain = 0
KGO1 250348Z 09016G21KT 16/12 A2975 RMK A01 T01580119  RH  077%=      5-min Rain = 0
KGO1 250349Z 09018KT 16/12 A2975 RMK A01 T01580119  RH  077%=      5-min Rain = 0
KGO1 250350Z 09016G21KT 16/12 A2975 RMK A01 T01570120  RH  078%=      5-min Rain = 0
KGO1 250351Z 09017KT 16/12 A2976 RMK A01 T01560120  RH  079%=      5-min Rain = 0
KGO1 250352Z 10013KT 16/12 A2976 RMK A01 T01560121  RH  080%=      5-min Rain = 0
KGO1 250353Z 10014KT 16/12 A2976 RMK A01 T01550121  RH  080%=      5-min Rain = 0
KGO1 250354Z 11016KT 15/12 A2976 RMK A01 T01540121  RH  081%=      5-min Rain = 0
KGO1 250355Z 12013KT 15/12 A2977 RMK A01 T01530122  RH  082%=      5-min Rain = 0
KGO1 250356Z 13014KT 15/12 A2977 RMK A01 T01520123  RH  083%=      5-min Rain = 0
KGO1 250357Z 14013KT 15/12 A2977 RMK A01 T01510124  RH  084%=      5-min Rain = 0
KGO1 250358Z 13013KT 15/12 A2978 RMK A01 T01510123  RH  084%=      5-min Rain = 0
KGO1 250359Z 12013KT 15/12 A2978 RMK A01 T01510124  RH  084%=      5-min Rain = 0
KGO1 250400Z 12013KT 15/12 A2978 RMK A01 T01510124  RH  084%=      5-min Rain = 0
KGO1 250401Z 11015KT 15/12 A2978 RMK A01 T01510123  RH  083%=      5-min Rain = 0
KGO1 250402Z 11012KT 15/12 A2978 RMK A01 T01500122  RH  083%=      5-min Rain = 0
KGO1 250403Z 10016KT 15/12 A2978 RMK A01 T01500123  RH  084%=      5-min Rain = 0
KGO1 250404Z 10015KT 15/12 A2978 RMK A01 T01490123  RH  084%=      5-min Rain = 0
KGO1 250405Z 10014KT 15/12 A2978 RMK A01 T01480123  RH  085%=      5-min Rain = 0
KGO1 250406Z 08014KT 15/12 A2978 RMK A01 T01480124  RH  086%=      5-min Rain = 0
KGO1 250407Z 08014KT 15/12 A2978 RMK A01 T01470123  RH  086%=      5-min Rain = 0
KGO1 250408Z 08014KT 15/12 A2978 RMK A01 T01460123  RH  086%=      5-min Rain = 0
KGO1 250409Z 07013KT 15/12 A2978 RMK A01 T01460123  RH  086%=      5-min Rain = 0
KGO1 250410Z 07013G19KT 15/12 A2978 RMK A01 T01450124  RH  087%=      5-min Rain = 0
KGO1 250411Z 08018G25KT 14/12 A2978 RMK A01 T01440123  RH  087%=      5-min Rain = 0
KGO1 250412Z 08020G26KT 14/12 A2978 RMK A01 T01440122  RH  087%=      5-min Rain = 0
KGO1 250413Z 08021G28KT 14/12 A2978 RMK A01 T01440122  RH  087%=      5-min Rain = 0
KGO1 250414Z 09019G24KT 14/12 A2978 RMK A01 T01430122  RH  087%=      5-min Rain = 0
KGO1 250415Z 09016KT 14/12 A2977 RMK A01 T01430123  RH  087%=      5-min Rain = 0
KGO1 250416Z 09016KT 14/12 A2977 RMK A01 T01430124  RH  088%=      5-min Rain = 0
KGO1 250417Z 09020G25KT 14/12 A2977 RMK A01 T01420124  RH  089%=      5-min Rain = 0
KGO1 250418Z 08018G25KT 14/12 A2977 RMK A01 T01420123  RH  088%=      5-min Rain = 0
KGO1 250419Z 08017G22KT 14/12 A2977 RMK A01 T01410123  RH  089%=      5-min Rain = 0
KGO1 250420Z 08016G23KT 14/12 A2977 RMK A01 T01410123  RH  089%=      5-min Rain = 0
KGO1 250421Z 07018G27KT 14/12 A2977 RMK A01 T01400122  RH  089%=      5-min Rain = 0
KGO1 250422Z 08022G28KT 14/12 A2976 RMK A01 T01410122  RH  088%=      5-min Rain = 0
KGO1 250423Z 08017G25KT 14/12 A2976 RMK A01 T01410122  RH  088%=      5-min Rain = 0
KGO1 250424Z 08019KT 14/12 A2976 RMK A01 T01410121  RH  088%=      5-min Rain = 0
KGO1 250425Z 08018G23KT 14/12 A2976 RMK A01 T01410122  RH  088%=      5-min Rain = 0
KGO1 250426Z 08019G25KT 14/12 A2977 RMK A01 T01410121  RH  088%=      5-min Rain = 0
KGO1 250427Z 07021G27KT 14/12 A2977 RMK A01 T01410121  RH  088%=      5-min Rain = 0
KGO1 250428Z 08021G28KT 14/12 A2977 RMK A01 T01400121  RH  088%=      5-min Rain = 0
KGO1 250429Z 08020G26KT 14/12 A2977 RMK A01 T01400121  RH  088%=      5-min Rain = 0
KGO1 250430Z 08019G24KT 14/12 A2977 RMK A01 T01400121  RH  088%=      5-min Rain = 0
KGO1 250431Z 08019KT 14/12 A2977 RMK A01 T01400121  RH  089%=      5-min Rain = 0
KGO1 250432Z 08019KT 14/12 A2977 RMK A01 T01400121  RH  088%=      5-min Rain = 0
KGO1 250433Z 08019KT 14/12 A2977 RMK A01 T01390121  RH  088%=      5-min Rain = 0
KGO1 250434Z 08022G27KT 14/12 A2976 RMK A01 T01400120  RH  088%=      5-min Rain = 0
KGO1 250435Z 08018G26KT 14/12 A2976 RMK A01 T01400119  RH  087%=      5-min Rain = 0
KGO1 250436Z 08018G24KT 14/12 A2976 RMK A01 T01400119  RH  087%=      5-min Rain = 0
KGO1 250437Z 08019G27KT 14/12 A2976 RMK A01 T01410119  RH  087%=      5-min Rain = 0
KGO1 250438Z 08016G21KT 14/12 A2976 RMK A01 T01420119  RH  086%=      5-min Rain = 0
KGO1 250439Z 07016G24KT 14/12 A2976 RMK A01 T01420119  RH  086%=      5-min Rain = 0
KGO1 250440Z 08018G25KT 14/12 A2976 RMK A01 T01430119  RH  086%=      5-min Rain = 0
KGO1 250441Z 08016KT 14/12 A2976 RMK A01 T01430119  RH  085%=      5-min Rain = 0
KGO1 250442Z 08020G26KT 14/12 A2976 RMK A01 T01440118  RH  085%=      5-min Rain = 0
KGO1 250443Z 08020G28KT 14/12 A2976 RMK A01 T01440118  RH  084%=      5-min Rain = 0
KGO1 250444Z 08015G20KT 14/12 A2976 RMK A01 T01440119  RH  085%=      5-min Rain = 0
KGO1 250445Z 08017G22KT 14/12 A2976 RMK A01 T01440120  RH  085%=      5-min Rain = 0
KGO1 250446Z 08015KT 14/12 A2976 RMK A01 T01440120  RH  085%=      5-min Rain = 0
KGO1 250447Z 08017G26KT 14/12 A2976 RMK A01 T01440120  RH  086%=      5-min Rain = 0
KGO1 250448Z 08017G22KT 14/12 A2976 RMK A01 T01440119  RH  085%=      5-min Rain = 0
KGO1 250449Z 09020G27KT 14/12 A2976 RMK A01 T01440119  RH  085%=      5-min Rain = 0
KGO1 250450Z 09018G24KT 14/12 A2976 RMK A01 T01440119  RH  085%=      5-min Rain = 0
KGO1 250451Z 09017KT 14/12 A2976 RMK A01 T01440120  RH  086%=      5-min Rain = 0
KGO1 250452Z 09020KT 14/12 A2976 RMK A01 T01440120  RH  085%=      5-min Rain = 0
KGO1 250453Z 09018G24KT 14/12 A2976 RMK A01 T01440119  RH  085%=      5-min Rain = 0
KGO1 250454Z 09020G25KT 14/12 A2976 RMK A01 T01440120  RH  085%=      5-min Rain = 0
KGO1 250455Z 09018G25KT 14/12 A2976 RMK A01 T01440120  RH  085%=      5-min Rain = 0
KGO1 250456Z 09019G26KT 15/12 A2977 RMK A01 T01450120  RH  085%=      5-min Rain = 0
KGO1 250457Z 09020G25KT 15/12 A2977 RMK A01 T01450120  RH  085%=      5-min Rain = 0
KGO1 250458Z 10017KT 15/12 A2977 RMK A01 T01450120  RH  085%=      5-min Rain = 0
KGO1 250459Z 09016G21KT 15/12 A2977 RMK A01 T01450120  RH  085%=      5-min Rain = 0

Page generated in 0.0958 seconds.